Observation data for Hackberry on 07/18/2019      Previous  Date  Next       Current Mesonet Observations  Soil Data  Daily Summary Page  Observations in Plain Language
KHA3 180500Z 15011KT 28/18 A2992 RMK A01 T02840181  RH  054%=      5-min Rain = 0
KHA3 180501Z 15011KT 29/18 A2992 RMK A01 T02850182  RH  054%=      5-min Rain = 0
KHA3 180502Z 15010KT 28/18 A2992 RMK A01 T02840182  RH  054%=      5-min Rain = 0
KHA3 180503Z 15011KT 29/18 A2992 RMK A01 T02850182  RH  054%=      5-min Rain = 0
KHA3 180504Z 15011KT 28/18 A2992 RMK A01 T02840182  RH  054%=      5-min Rain = 0
KHA3 180505Z 15011KT 28/18 A2992 RMK A01 T02840182  RH  054%=      5-min Rain = 0
KHA3 180506Z 15011KT 28/18 A2992 RMK A01 T02840182  RH  054%=      5-min Rain = 0
KHA3 180507Z 15011KT 28/18 A2992 RMK A01 T02840182  RH  054%=      5-min Rain = 0
KHA3 180508Z 15013KT 28/18 A2992 RMK A01 T02840182  RH  054%=      5-min Rain = 0
KHA3 180509Z 15012KT 28/18 A2992 RMK A01 T02840181  RH  054%=      5-min Rain = 0
KHA3 180510Z 15012KT 28/18 A2992 RMK A01 T02840182  RH  054%=      5-min Rain = 0
KHA3 180511Z 15012KT 28/18 A2992 RMK A01 T02840182  RH  054%=      5-min Rain = 0
KHA3 180512Z 15012KT 28/18 A2992 RMK A01 T02840182  RH  054%=      5-min Rain = 0
KHA3 180513Z 15012KT 28/18 A2992 RMK A01 T02840182  RH  054%=      5-min Rain = 0
KHA3 180514Z 16012KT 28/18 A2992 RMK A01 T02840182  RH  054%=      5-min Rain = 0
KHA3 180515Z 15013KT 28/18 A2992 RMK A01 T02840182  RH  054%=      5-min Rain = 0
KHA3 180516Z 15011KT 29/18 A2992 RMK A01 T02850182  RH  054%=      5-min Rain = 0
KHA3 180517Z 16013KT 29/18 A2992 RMK A01 T02850182  RH  054%=      5-min Rain = 0
KHA3 180518Z 16013KT 28/18 A2992 RMK A01 T02840182  RH  054%=      5-min Rain = 0
KHA3 180519Z 16012KT 29/18 A2992 RMK A01 T02850182  RH  054%=      5-min Rain = 0
KHA3 180520Z 15012KT 29/18 A2992 RMK A01 T02850182  RH  054%=      5-min Rain = 0
KHA3 180521Z 15013KT 29/18 A2992 RMK A01 T02850183  RH  054%=      5-min Rain = 0
KHA3 180522Z 15013KT 29/18 A2992 RMK A01 T02850182  RH  054%=      5-min Rain = 0
KHA3 180523Z 15012KT 29/18 A2992 RMK A01 T02850182  RH  053%=      5-min Rain = 0
KHA3 180524Z 16013KT 29/18 A2992 RMK A01 T02860183  RH  054%=      5-min Rain = 0
KHA3 180525Z 16012KT 29/18 A2993 RMK A01 T02860182  RH  054%=      5-min Rain = 0
KHA3 180526Z 15009KT 29/18 A2993 RMK A01 T02850182  RH  054%=      5-min Rain = 0
KHA3 180527Z 16012KT 29/18 A2993 RMK A01 T02850183  RH  054%=      5-min Rain = 0
KHA3 180528Z 16012KT 29/18 A2993 RMK A01 T02850182  RH  054%=      5-min Rain = 0
KHA3 180529Z 16012KT 28/18 A2992 RMK A01 T02840182  RH  054%=      5-min Rain = 0
KHA3 180530Z 16011KT 28/18 A2993 RMK A01 T02840182  RH  054%=      5-min Rain = 0
KHA3 180531Z 16012KT 28/18 A2992 RMK A01 T02830183  RH  054%=      5-min Rain = 0
KHA3 180532Z 15013KT 28/18 A2992 RMK A01 T02830183  RH  054%=      5-min Rain = 0
KHA3 180533Z 16012KT 28/18 A2992 RMK A01 T02830182  RH  054%=      5-min Rain = 0
KHA3 180534Z 16011KT 28/18 A2992 RMK A01 T02830182  RH  054%=      5-min Rain = 0
KHA3 180535Z 16011KT 28/18 A2992 RMK A01 T02830183  RH  055%=      5-min Rain = 0
KHA3 180536Z 16011KT 28/18 A2992 RMK A01 T02820183  RH  055%=      5-min Rain = 0
KHA3 180537Z 15010KT 28/18 A2992 RMK A01 T02810183  RH  055%=      5-min Rain = 0
KHA3 180538Z 16010KT 28/18 A2992 RMK A01 T02810183  RH  055%=      5-min Rain = 0
KHA3 180539Z 16012KT 28/18 A2992 RMK A01 T02810182  RH  055%=      5-min Rain = 0
KHA3 180540Z 16011KT 28/18 A2992 RMK A01 T02810183  RH  055%=      5-min Rain = 0
KHA3 180541Z 15012KT 28/18 A2992 RMK A01 T02810183  RH  055%=      5-min Rain = 0
KHA3 180542Z 16012KT 28/18 A2992 RMK A01 T02810182  RH  055%=      5-min Rain = 0
KHA3 180543Z 16012KT 28/18 A2992 RMK A01 T02810182  RH  055%=      5-min Rain = 0
KHA3 180544Z 16013KT 28/18 A2992 RMK A01 T02810182  RH  055%=      5-min Rain = 0
KHA3 180545Z 16012KT 28/18 A2992 RMK A01 T02820182  RH  055%=      5-min Rain = 0
KHA3 180546Z 16012KT 28/18 A2992 RMK A01 T02810182  RH  055%=      5-min Rain = 0
KHA3 180547Z 16012KT 28/18 A2992 RMK A01 T02820183  RH  055%=      5-min Rain = 0
KHA3 180548Z 16013KT 28/18 A2992 RMK A01 T02810183  RH  055%=      5-min Rain = 0
KHA3 180549Z 16013KT 28/18 A2992 RMK A01 T02810183  RH  055%=      5-min Rain = 0
KHA3 180550Z 16013KT 28/18 A2992 RMK A01 T02820183  RH  055%=      5-min Rain = 0
KHA3 180551Z 16012KT 28/18 A2992 RMK A01 T02820183  RH  055%=      5-min Rain = 0
KHA3 180552Z 16012KT 28/18 A2992 RMK A01 T02820183  RH  055%=      5-min Rain = 0
KHA3 180553Z 16012KT 28/18 A2992 RMK A01 T02820183  RH  055%=      5-min Rain = 0
KHA3 180554Z 16012KT 28/18 A2992 RMK A01 T02810183  RH  055%=      5-min Rain = 0
KHA3 180555Z 16013KT 28/18 A2992 RMK A01 T02800183  RH  055%=      5-min Rain = 0
KHA3 180556Z 16012KT 28/18 A2992 RMK A01 T02800183  RH  056%=      5-min Rain = 0
KHA3 180557Z 16013KT 28/18 A2992 RMK A01 T02800183  RH  056%=      5-min Rain = 0
KHA3 180558Z 16013KT 28/18 A2992 RMK A01 T02800183  RH  056%=      5-min Rain = 0
KHA3 180559Z 16012KT 28/18 A2992 RMK A01 T02800183  RH  056%=      5-min Rain = 0
KHA3 180600Z 16013KT 28/18 A2992 RMK A01 T02800183  RH  056%=      5-min Rain = 0
KHA3 180601Z 16013KT 28/18 A2992 RMK A01 T02800183  RH  056%=      5-min Rain = 0
KHA3 180602Z 16013KT 28/18 A2992 RMK A01 T02790183  RH  056%=      5-min Rain = 0
KHA3 180603Z 16012KT 28/18 A2992 RMK A01 T02800183  RH  056%=      5-min Rain = 0
KHA3 180604Z 16013KT 28/18 A2992 RMK A01 T02790183  RH  056%=      5-min Rain = 0
KHA3 180605Z 16013KT 28/18 A2992 RMK A01 T02790183  RH  056%=      5-min Rain = 0
KHA3 180606Z 16013KT 28/18 A2992 RMK A01 T02790183  RH  056%=      5-min Rain = 0
KHA3 180607Z 16013KT 28/18 A2992 RMK A01 T02790184  RH  056%=      5-min Rain = 0
KHA3 180608Z 16012KT 28/18 A2992 RMK A01 T02790184  RH  056%=      5-min Rain = 0
KHA3 180609Z 16013KT 28/18 A2992 RMK A01 T02780184  RH  056%=      5-min Rain = 0
KHA3 180610Z 16013KT 28/18 A2992 RMK A01 T02780184  RH  056%=      5-min Rain = 0
KHA3 180611Z 16013KT 28/18 A2992 RMK A01 T02790183  RH  056%=      5-min Rain = 0
KHA3 180612Z 16012KT 28/18 A2992 RMK A01 T02780183  RH  056%=      5-min Rain = 0
KHA3 180613Z 17013KT 28/18 A2992 RMK A01 T02790184  RH  056%=      5-min Rain = 0
KHA3 180614Z 17012KT 28/18 A2992 RMK A01 T02780184  RH  056%=      5-min Rain = 0
KHA3 180615Z 16012KT 28/18 A2992 RMK A01 T02780184  RH  057%=      5-min Rain = 0
KHA3 180616Z 16012KT 28/18 A2992 RMK A01 T02770184  RH  057%=      5-min Rain = 0
KHA3 180617Z 16012KT 28/18 A2992 RMK A01 T02770184  RH  057%=      5-min Rain = 0
KHA3 180618Z 16012KT 28/18 A2992 RMK A01 T02770184  RH  057%=      5-min Rain = 0
KHA3 180619Z 17012KT 28/18 A2992 RMK A01 T02760184  RH  057%=      5-min Rain = 0
KHA3 180620Z 17011KT 28/18 A2992 RMK A01 T02760184  RH  057%=      5-min Rain = 0
KHA3 180621Z 16013KT 28/18 A2992 RMK A01 T02760184  RH  057%=      5-min Rain = 0
KHA3 180622Z 16011KT 28/18 A2993 RMK A01 T02750184  RH  058%=      5-min Rain = 0
KHA3 180623Z 16011KT 28/18 A2992 RMK A01 T02750184  RH  058%=      5-min Rain = 0
KHA3 180624Z 16011KT 27/18 A2992 RMK A01 T02740184  RH  058%=      5-min Rain = 0
KHA3 180625Z 16011KT 27/18 A2992 RMK A01 T02730184  RH  058%=      5-min Rain = 0
KHA3 180626Z 16011KT 27/18 A2992 RMK A01 T02730184  RH  058%=      5-min Rain = 0
KHA3 180627Z 16013KT 27/18 A2992 RMK A01 T02730184  RH  058%=      5-min Rain = 0
KHA3 180628Z 16012KT 27/18 A2992 RMK A01 T02730184  RH  058%=      5-min Rain = 0
KHA3 180629Z 16012KT 27/18 A2992 RMK A01 T02740184  RH  058%=      5-min Rain = 0
KHA3 180630Z 16013KT 27/18 A2992 RMK A01 T02740184  RH  058%=      5-min Rain = 0
KHA3 180631Z 16013KT 27/18 A2992 RMK A01 T02740184  RH  058%=      5-min Rain = 0
KHA3 180632Z 16013KT 28/19 A2992 RMK A01 T02750185  RH  058%=      5-min Rain = 0
KHA3 180633Z 16013KT 27/18 A2992 RMK A01 T02740184  RH  058%=      5-min Rain = 0
KHA3 180634Z 16013KT 28/19 A2992 RMK A01 T02750185  RH  058%=      5-min Rain = 0
KHA3 180635Z 16013KT 28/19 A2992 RMK A01 T02750185  RH  058%=      5-min Rain = 0
KHA3 180636Z 16014KT 28/19 A2992 RMK A01 T02750185  RH  058%=      5-min Rain = 0
KHA3 180637Z 16013KT 28/19 A2992 RMK A01 T02760185  RH  058%=      5-min Rain = 0
KHA3 180638Z 16013KT 28/19 A2992 RMK A01 T02760185  RH  058%=      5-min Rain = 0
KHA3 180639Z 16014KT 28/19 A2992 RMK A01 T02760185  RH  058%=      5-min Rain = 0
KHA3 180640Z 16013KT 28/19 A2992 RMK A01 T02760185  RH  057%=      5-min Rain = 0
KHA3 180641Z 16014KT 28/19 A2992 RMK A01 T02760185  RH  057%=      5-min Rain = 0
KHA3 180642Z 16013KT 28/19 A2992 RMK A01 T02760185  RH  057%=      5-min Rain = 0
KHA3 180643Z 17012KT 28/19 A2992 RMK A01 T02760185  RH  058%=      5-min Rain = 0
KHA3 180644Z 16012KT 28/19 A2992 RMK A01 T02750185  RH  058%=      5-min Rain = 0
KHA3 180645Z 17013KT 28/19 A2992 RMK A01 T02760185  RH  058%=      5-min Rain = 0
KHA3 180646Z 16012KT 28/19 A2992 RMK A01 T02760186  RH  058%=      5-min Rain = 0
KHA3 180647Z 16013KT 28/19 A2992 RMK A01 T02750186  RH  058%=      5-min Rain = 0
KHA3 180648Z 16013KT 28/19 A2992 RMK A01 T02750185  RH  058%=      5-min Rain = 0
KHA3 180649Z 16013KT 28/19 A2992 RMK A01 T02750186  RH  058%=      5-min Rain = 0
KHA3 180650Z 17012KT 27/19 A2992 RMK A01 T02740186  RH  058%=      5-min Rain = 0
KHA3 180651Z 17012KT 27/19 A2992 RMK A01 T02740186  RH  059%=      5-min Rain = 0
KHA3 180652Z 17012KT 27/19 A2992 RMK A01 T02730186  RH  059%=      5-min Rain = 0
KHA3 180653Z 16012KT 27/19 A2992 RMK A01 T02730186  RH  059%=      5-min Rain = 0
KHA3 180654Z 17012KT 27/19 A2992 RMK A01 T02720186  RH  059%=      5-min Rain = 0
KHA3 180655Z 17012KT 27/19 A2992 RMK A01 T02720186  RH  059%=      5-min Rain = 0
KHA3 180656Z 17013KT 27/19 A2992 RMK A01 T02720186  RH  059%=      5-min Rain = 0
KHA3 180657Z 16011KT 27/19 A2992 RMK A01 T02720186  RH  059%=      5-min Rain = 0
KHA3 180658Z 16012KT 27/19 A2992 RMK A01 T02710186  RH  060%=      5-min Rain = 0
KHA3 180659Z 17012KT 27/19 A2992 RMK A01 T02710186  RH  060%=      5-min Rain = 0
KHA3 180700Z 17012KT 27/19 A2992 RMK A01 T02710186  RH  060%=      5-min Rain = 0
KHA3 180701Z 17011KT 27/19 A2992 RMK A01 T02710186  RH  060%=      5-min Rain = 0
KHA3 180702Z 17012KT 27/19 A2992 RMK A01 T02710186  RH  060%=      5-min Rain = 0
KHA3 180703Z 17011KT 27/19 A2992 RMK A01 T02710186  RH  060%=      5-min Rain = 0
KHA3 180704Z 17012KT 27/19 A2992 RMK A01 T02700186  RH  060%=      5-min Rain = 0
KHA3 180705Z 17012KT 27/19 A2992 RMK A01 T02700186  RH  060%=      5-min Rain = 0
KHA3 180706Z 17012KT 27/19 A2992 RMK A01 T02700186  RH  060%=      5-min Rain = 0
KHA3 180707Z 17010KT 27/19 A2992 RMK A01 T02700186  RH  060%=      5-min Rain = 0
KHA3 180708Z 17012KT 27/19 A2991 RMK A01 T02700186  RH  060%=      5-min Rain = 0
KHA3 180709Z 17011KT 27/19 A2991 RMK A01 T02700186  RH  060%=      5-min Rain = 0
KHA3 180710Z 17012KT 27/19 A2991 RMK A01 T02700186  RH  060%=      5-min Rain = 0
KHA3 180711Z 16012KT 27/19 A2991 RMK A01 T02700186  RH  060%=      5-min Rain = 0
KHA3 180712Z 17012KT 27/19 A2991 RMK A01 T02700186  RH  060%=      5-min Rain = 0
KHA3 180713Z 16013KT 27/19 A2991 RMK A01 T02700185  RH  060%=      5-min Rain = 0
KHA3 180714Z 16014KT 27/19 A2991 RMK A01 T02710186  RH  060%=      5-min Rain = 0
KHA3 180715Z 16014KT 27/19 A2991 RMK A01 T02710186  RH  059%=      5-min Rain = 0
KHA3 180716Z 16014KT 27/19 A2991 RMK A01 T02720186  RH  059%=      5-min Rain = 0
KHA3 180717Z 16014KT 27/19 A2991 RMK A01 T02710186  RH  059%=      5-min Rain = 0
KHA3 180718Z 16014KT 27/19 A2991 RMK A01 T02720186  RH  059%=      5-min Rain = 0
KHA3 180719Z 16014KT 27/19 A2991 RMK A01 T02720186  RH  059%=      5-min Rain = 0
KHA3 180720Z 16013KT 27/19 A2991 RMK A01 T02720186  RH  059%=      5-min Rain = 0
KHA3 180721Z 16013KT 27/19 A2991 RMK A01 T02720186  RH  059%=      5-min Rain = 0
KHA3 180722Z 16013KT 27/19 A2991 RMK A01 T02710186  RH  059%=      5-min Rain = 0
KHA3 180723Z 16014KT 27/19 A2991 RMK A01 T02710186  RH  059%=      5-min Rain = 0
KHA3 180724Z 16014KT 27/19 A2991 RMK A01 T02710186  RH  059%=      5-min Rain = 0
KHA3 180725Z 16013KT 27/19 A2991 RMK A01 T02710185  RH  059%=      5-min Rain = 0
KHA3 180726Z 16014KT 27/19 A2991 RMK A01 T02720186  RH  059%=      5-min Rain = 0
KHA3 180727Z 16013KT 27/19 A2991 RMK A01 T02710186  RH  059%=      5-min Rain = 0
KHA3 180728Z 16013KT 27/19 A2991 RMK A01 T02710186  RH  059%=      5-min Rain = 0
KHA3 180729Z 16014KT 27/19 A2991 RMK A01 T02710186  RH  060%=      5-min Rain = 0
KHA3 180730Z 16014KT 27/19 A2991 RMK A01 T02710186  RH  060%=      5-min Rain = 0
KHA3 180731Z 16016KT 27/19 A2991 RMK A01 T02700186  RH  060%=      5-min Rain = 0
KHA3 180732Z 16013KT 27/19 A2991 RMK A01 T02710186  RH  060%=      5-min Rain = 0
KHA3 180733Z 16013KT 27/19 A2991 RMK A01 T02700186  RH  060%=      5-min Rain = 0
KHA3 180734Z 16014G19KT 27/19 A2991 RMK A01 T02700186  RH  060%=      5-min Rain = 0
KHA3 180735Z 16014KT 27/19 A2991 RMK A01 T02700186  RH  060%=      5-min Rain = 0
KHA3 180736Z 16013KT 27/19 A2991 RMK A01 T02700186  RH  060%=      5-min Rain = 0
KHA3 180737Z 16014KT 27/19 A2991 RMK A01 T02700186  RH  060%=      5-min Rain = 0
KHA3 180738Z 16015KT 27/19 A2991 RMK A01 T02690186  RH  060%=      5-min Rain = 0
KHA3 180739Z 16013KT 27/19 A2991 RMK A01 T02690186  RH  060%=      5-min Rain = 0
KHA3 180740Z 16014KT 27/19 A2991 RMK A01 T02700186  RH  060%=      5-min Rain = 0
KHA3 180741Z 17013KT 27/19 A2991 RMK A01 T02700186  RH  060%=      5-min Rain = 0
KHA3 180742Z 17013KT 27/19 A2991 RMK A01 T02690186  RH  060%=      5-min Rain = 0
KHA3 180743Z 17012KT 27/19 A2991 RMK A01 T02690186  RH  060%=      5-min Rain = 0
KHA3 180744Z 17014KT 27/19 A2991 RMK A01 T02680186  RH  061%=      5-min Rain = 0
KHA3 180745Z 16013G18KT 27/19 A2991 RMK A01 T02680186  RH  061%=      5-min Rain = 0
KHA3 180746Z 16013KT 27/19 A2991 RMK A01 T02680186  RH  061%=      5-min Rain = 0
KHA3 180747Z 17014KT 27/19 A2991 RMK A01 T02680186  RH  061%=      5-min Rain = 0
KHA3 180748Z 17015KT 27/19 A2991 RMK A01 T02680186  RH  061%=      5-min Rain = 0
KHA3 180749Z 16013KT 27/19 A2991 RMK A01 T02670186  RH  061%=      5-min Rain = 0
KHA3 180750Z 17013KT 27/19 A2991 RMK A01 T02680187  RH  061%=      5-min Rain = 0
KHA3 180751Z 17014KT 27/19 A2991 RMK A01 T02680187  RH  061%=      5-min Rain = 0
KHA3 180752Z 17012KT 27/19 A2991 RMK A01 T02670186  RH  061%=      5-min Rain = 0
KHA3 180753Z 17013KT 27/19 A2991 RMK A01 T02660187  RH  062%=      5-min Rain = 0
KHA3 180754Z 17012KT 27/19 A2991 RMK A01 T02660187  RH  062%=      5-min Rain = 0
KHA3 180755Z 16013KT 27/19 A2991 RMK A01 T02650187  RH  062%=      5-min Rain = 0
KHA3 180756Z 17014KT 27/19 A2991 RMK A01 T02660187  RH  062%=      5-min Rain = 0
KHA3 180757Z 17013KT 27/19 A2991 RMK A01 T02660187  RH  062%=      5-min Rain = 0
KHA3 180758Z 17013KT 27/19 A2991 RMK A01 T02660187  RH  062%=      5-min Rain = 0
KHA3 180759Z 16014KT 27/19 A2991 RMK A01 T02660187  RH  062%=      5-min Rain = 0
KHA3 180800Z 17012KT 27/19 A2991 RMK A01 T02660187  RH  062%=      5-min Rain = 0
KHA3 180801Z 17014KT 27/19 A2991 RMK A01 T02650187  RH  062%=      5-min Rain = 0
KHA3 180802Z 17013KT 27/19 A2991 RMK A01 T02650187  RH  062%=      5-min Rain = 0
KHA3 180803Z 17014KT 27/19 A2991 RMK A01 T02650187  RH  062%=      5-min Rain = 0
KHA3 180804Z 17014KT 27/19 A2991 RMK A01 T02650187  RH  062%=      5-min Rain = 0
KHA3 180805Z 17014KT 27/19 A2991 RMK A01 T02650187  RH  062%=      5-min Rain = 0
KHA3 180806Z 17014KT 27/19 A2991 RMK A01 T02650187  RH  062%=      5-min Rain = 0
KHA3 180807Z 17014KT 27/19 A2991 RMK A01 T02650187  RH  062%=      5-min Rain = 0
KHA3 180808Z 17014KT 27/19 A2991 RMK A01 T02660187  RH  062%=      5-min Rain = 0
KHA3 180809Z 17013KT 27/19 A2991 RMK A01 T02660187  RH  062%=      5-min Rain = 0
KHA3 180810Z 17013KT 27/19 A2991 RMK A01 T02650188  RH  062%=      5-min Rain = 0
KHA3 180811Z 17013KT 27/19 A2991 RMK A01 T02650187  RH  063%=      5-min Rain = 0
KHA3 180812Z 17014KT 27/19 A2991 RMK A01 T02650187  RH  062%=      5-min Rain = 0
KHA3 180813Z 17014KT 27/19 A2991 RMK A01 T02650187  RH  062%=      5-min Rain = 0
KHA3 180814Z 17013KT 27/19 A2991 RMK A01 T02660188  RH  062%=      5-min Rain = 0
KHA3 180815Z 17014KT 27/19 A2991 RMK A01 T02660188  RH  062%=      5-min Rain = 0
KHA3 180816Z 17014KT 27/19 A2991 RMK A01 T02660188  RH  062%=      5-min Rain = 0
KHA3 180817Z 17013KT 27/19 A2991 RMK A01 T02660188  RH  062%=      5-min Rain = 0
KHA3 180818Z 18013KT 27/19 A2991 RMK A01 T02660189  RH  062%=      5-min Rain = 0
KHA3 180819Z 17013KT 27/19 A2991 RMK A01 T02660188  RH  063%=      5-min Rain = 0
KHA3 180820Z 17014KT 27/19 A2991 RMK A01 T02660189  RH  063%=      5-min Rain = 0
KHA3 180821Z 17013KT 27/19 A2991 RMK A01 T02660188  RH  062%=      5-min Rain = 0
KHA3 180822Z 18012KT 27/19 A2991 RMK A01 T02670189  RH  062%=      5-min Rain = 0
KHA3 180823Z 18014KT 27/19 A2991 RMK A01 T02670189  RH  062%=      5-min Rain = 0
KHA3 180824Z 18014KT 27/19 A2991 RMK A01 T02670188  RH  062%=      5-min Rain = 0
KHA3 180825Z 18014KT 27/19 A2991 RMK A01 T02670189  RH  062%=      5-min Rain = 0
KHA3 180826Z 18015KT 27/19 A2991 RMK A01 T02680189  RH  062%=      5-min Rain = 0
KHA3 180827Z 18013KT 27/19 A2991 RMK A01 T02680189  RH  062%=      5-min Rain = 0
KHA3 180828Z 18013G18KT 27/19 A2991 RMK A01 T02680189  RH  062%=      5-min Rain = 0
KHA3 180829Z 18014KT 27/19 A2991 RMK A01 T02670189  RH  062%=      5-min Rain = 0
KHA3 180830Z 18015KT 27/19 A2991 RMK A01 T02670189  RH  062%=      5-min Rain = 0
KHA3 180831Z 18014KT 27/19 A2991 RMK A01 T02670189  RH  062%=      5-min Rain = 0
KHA3 180832Z 18014KT 27/19 A2991 RMK A01 T02670189  RH  062%=      5-min Rain = 0
KHA3 180833Z 17014KT 27/19 A2991 RMK A01 T02670190  RH  062%=      5-min Rain = 0
KHA3 180834Z 18013KT 27/19 A2991 RMK A01 T02670190  RH  062%=      5-min Rain = 0
KHA3 180835Z 18014KT 27/19 A2991 RMK A01 T02670190  RH  063%=      5-min Rain = 0
KHA3 180836Z 17015KT 27/19 A2991 RMK A01 T02670190  RH  063%=      5-min Rain = 0
KHA3 180837Z 18013KT 27/19 A2991 RMK A01 T02670190  RH  063%=      5-min Rain = 0
KHA3 180838Z 17014KT 27/19 A2991 RMK A01 T02670190  RH  063%=      5-min Rain = 0
KHA3 180839Z 18014KT 27/19 A2991 RMK A01 T02660189  RH  063%=      5-min Rain = 0
KHA3 180840Z 18013KT 27/19 A2991 RMK A01 T02670190  RH  063%=      5-min Rain = 0
KHA3 180841Z 17015KT 27/19 A2991 RMK A01 T02670190  RH  063%=      5-min Rain = 0
KHA3 180842Z 17012KT 27/19 A2991 RMK A01 T02670190  RH  063%=      5-min Rain = 0
KHA3 180843Z 18013KT 27/19 A2991 RMK A01 T02670190  RH  063%=      5-min Rain = 0
KHA3 180844Z 18014KT 27/19 A2991 RMK A01 T02660190  RH  063%=      5-min Rain = 0
KHA3 180845Z 17013KT 27/19 A2992 RMK A01 T02660190  RH  063%=      5-min Rain = 0
KHA3 180846Z 17012KT 27/19 A2992 RMK A01 T02670190  RH  063%=      5-min Rain = 0
KHA3 180847Z 18013KT 27/19 A2992 RMK A01 T02660191  RH  063%=      5-min Rain = 0
KHA3 180848Z 17013KT 27/19 A2991 RMK A01 T02650190  RH  063%=      5-min Rain = 0
KHA3 180849Z 17014KT 27/19 A2991 RMK A01 T02660190  RH  063%=      5-min Rain = 0
KHA3 180850Z 17014KT 27/19 A2991 RMK A01 T02660191  RH  063%=      5-min Rain = 0
KHA3 180851Z 17014KT 27/19 A2991 RMK A01 T02660191  RH  063%=      5-min Rain = 0
KHA3 180852Z 17014KT 27/19 A2991 RMK A01 T02660191  RH  064%=      5-min Rain = 0
KHA3 180853Z 17014KT 27/19 A2991 RMK A01 T02650190  RH  063%=      5-min Rain = 0
KHA3 180854Z 17013KT 27/19 A2991 RMK A01 T02660191  RH  063%=      5-min Rain = 0
KHA3 180855Z 17013KT 27/19 A2991 RMK A01 T02660191  RH  064%=      5-min Rain = 0
KHA3 180856Z 18012KT 27/19 A2991 RMK A01 T02660191  RH  064%=      5-min Rain = 0
KHA3 180857Z 18013KT 27/19 A2992 RMK A01 T02650191  RH  064%=      5-min Rain = 0
KHA3 180858Z 18013KT 27/19 A2992 RMK A01 T02650191  RH  064%=      5-min Rain = 0
KHA3 180859Z 18013KT 27/19 A2992 RMK A01 T02660191  RH  064%=      5-min Rain = 0
KHA3 180900Z 18015KT 27/19 A2992 RMK A01 T02650191  RH  064%=      5-min Rain = 0
KHA3 180901Z 18013KT 27/19 A2992 RMK A01 T02650191  RH  064%=      5-min Rain = 0
KHA3 180902Z 18014KT 27/19 A2992 RMK A01 T02660191  RH  064%=      5-min Rain = 0
KHA3 180903Z 18014KT 27/19 A2992 RMK A01 T02660191  RH  064%=      5-min Rain = 0
KHA3 180904Z 18013KT 27/19 A2992 RMK A01 T02660191  RH  063%=      5-min Rain = 0
KHA3 180905Z 18013KT 27/19 A2992 RMK A01 T02660192  RH  064%=      5-min Rain = 0
KHA3 180906Z 18012KT 27/19 A2992 RMK A01 T02660192  RH  064%=      5-min Rain = 0
KHA3 180907Z 18012KT 27/19 A2992 RMK A01 T02660192  RH  064%=      5-min Rain = 0
KHA3 180908Z 18013KT 27/19 A2992 RMK A01 T02650192  RH  064%=      5-min Rain = 0
KHA3 180909Z 18012KT 27/19 A2992 RMK A01 T02650192  RH  064%=      5-min Rain = 0
KHA3 180910Z 18013KT 27/19 A2992 RMK A01 T02650192  RH  064%=      5-min Rain = 0
KHA3 180911Z 18014KT 27/19 A2992 RMK A01 T02650192  RH  064%=      5-min Rain = 0
KHA3 180912Z 18012KT 27/19 A2992 RMK A01 T02650192  RH  064%=      5-min Rain = 0
KHA3 180913Z 18013KT 27/19 A2992 RMK A01 T02650192  RH  064%=      5-min Rain = 0
KHA3 180914Z 18014KT 27/19 A2992 RMK A01 T02650192  RH  064%=      5-min Rain = 0
KHA3 180915Z 18014KT 27/19 A2992 RMK A01 T02660192  RH  064%=      5-min Rain = 0
KHA3 180916Z 18013G18KT 27/19 A2992 RMK A01 T02660193  RH  064%=      5-min Rain = 0
KHA3 180917Z 18012KT 27/19 A2992 RMK A01 T02650193  RH  064%=      5-min Rain = 0
KHA3 180918Z 18014KT 27/19 A2992 RMK A01 T02650193  RH  065%=      5-min Rain = 0
KHA3 180919Z 18014KT 26/19 A2992 RMK A01 T02640192  RH  065%=      5-min Rain = 0
KHA3 180920Z 18015KT 26/19 A2992 RMK A01 T02640192  RH  065%=      5-min Rain = 0
KHA3 180921Z 18014KT 26/19 A2992 RMK A01 T02640192  RH  065%=      5-min Rain = 0
KHA3 180922Z 18014KT 26/19 A2992 RMK A01 T02640192  RH  065%=      5-min Rain = 0
KHA3 180923Z 18013KT 27/19 A2992 RMK A01 T02650193  RH  065%=      5-min Rain = 0
KHA3 180924Z 18013KT 27/19 A2992 RMK A01 T02650193  RH  065%=      5-min Rain = 0
KHA3 180925Z 18014KT 26/19 A2992 RMK A01 T02640193  RH  065%=      5-min Rain = 0
KHA3 180926Z 17014KT 26/19 A2992 RMK A01 T02640193  RH  065%=      5-min Rain = 0
KHA3 180927Z 18015KT 26/19 A2992 RMK A01 T02640193  RH  065%=      5-min Rain = 0
KHA3 180928Z 18015KT 27/19 A2992 RMK A01 T02650193  RH  065%=      5-min Rain = 0
KHA3 180929Z 18013KT 27/19 A2992 RMK A01 T02650193  RH  065%=      5-min Rain = 0
KHA3 180930Z 17012KT 27/19 A2992 RMK A01 T02650193  RH  065%=      5-min Rain = 0
KHA3 180931Z 18014KT 26/19 A2992 RMK A01 T02640193  RH  065%=      5-min Rain = 0
KHA3 180932Z 18013KT 26/19 A2992 RMK A01 T02640193  RH  065%=      5-min Rain = 0
KHA3 180933Z 18014KT 26/19 A2992 RMK A01 T02640193  RH  065%=      5-min Rain = 0
KHA3 180934Z 18014KT 26/19 A2992 RMK A01 T02640194  RH  065%=      5-min Rain = 0
KHA3 180935Z 18014KT 26/19 A2992 RMK A01 T02640193  RH  065%=      5-min Rain = 0
KHA3 180936Z 18013KT 26/19 A2992 RMK A01 T02640193  RH  065%=      5-min Rain = 0
KHA3 180937Z 18014KT 26/19 A2993 RMK A01 T02640194  RH  065%=      5-min Rain = 0
KHA3 180938Z 18014KT 26/19 A2993 RMK A01 T02640194  RH  065%=      5-min Rain = 0
KHA3 180939Z 18012KT 26/19 A2993 RMK A01 T02640194  RH  065%=      5-min Rain = 0
KHA3 180940Z 18013KT 26/19 A2992 RMK A01 T02640194  RH  065%=      5-min Rain = 0
KHA3 180941Z 18014KT 26/19 A2992 RMK A01 T02640194  RH  065%=      5-min Rain = 0
KHA3 180942Z 18014KT 26/19 A2992 RMK A01 T02640194  RH  065%=      5-min Rain = 0
KHA3 180943Z 18012KT 26/19 A2992 RMK A01 T02640194  RH  065%=      5-min Rain = 0
KHA3 180944Z 18013KT 26/19 A2992 RMK A01 T02640194  RH  065%=      5-min Rain = 0
KHA3 180945Z 18014KT 26/19 A2992 RMK A01 T02630194  RH  066%=      5-min Rain = 0
KHA3 180946Z 18014KT 26/19 A2992 RMK A01 T02630194  RH  066%=      5-min Rain = 0
KHA3 180947Z 18014KT 26/19 A2992 RMK A01 T02630194  RH  066%=      5-min Rain = 0
KHA3 180948Z 18015KT 26/19 A2992 RMK A01 T02630194  RH  066%=      5-min Rain = 0
KHA3 180949Z 18014KT 26/19 A2992 RMK A01 T02630194  RH  066%=      5-min Rain = 0
KHA3 180950Z 18012KT 26/19 A2992 RMK A01 T02630194  RH  066%=      5-min Rain = 0
KHA3 180951Z 18013KT 26/19 A2992 RMK A01 T02620194  RH  066%=      5-min Rain = 0
KHA3 180952Z 18013KT 26/20 A2992 RMK A01 T02620195  RH  066%=      5-min Rain = 0
KHA3 180953Z 18013KT 26/19 A2992 RMK A01 T02620194  RH  066%=      5-min Rain = 0
KHA3 180954Z 18014KT 26/20 A2992 RMK A01 T02620195  RH  066%=      5-min Rain = 0
KHA3 180955Z 18014G19KT 26/19 A2992 RMK A01 T02620194  RH  066%=      5-min Rain = 0
KHA3 180956Z 17015KT 26/19 A2992 RMK A01 T02620194  RH  066%=      5-min Rain = 0
KHA3 180957Z 17014KT 26/20 A2992 RMK A01 T02620195  RH  066%=      5-min Rain = 0
KHA3 180958Z 17014KT 26/20 A2992 RMK A01 T02620195  RH  067%=      5-min Rain = 0
KHA3 180959Z 18014KT 26/20 A2992 RMK A01 T02610195  RH  067%=      5-min Rain = 0
KHA3 181000Z 18014KT 26/20 A2992 RMK A01 T02620195  RH  067%=      5-min Rain = 0
KHA3 181001Z 17015KT 26/20 A2992 RMK A01 T02610195  RH  067%=      5-min Rain = 0
KHA3 181002Z 18014KT 26/20 A2992 RMK A01 T02610195  RH  067%=      5-min Rain = 0
KHA3 181003Z 17015KT 26/20 A2992 RMK A01 T02610195  RH  067%=      5-min Rain = 0
KHA3 181004Z 18015KT 26/20 A2992 RMK A01 T02610195  RH  067%=      5-min Rain = 0
KHA3 181005Z 17013KT 26/20 A2992 RMK A01 T02620195  RH  067%=      5-min Rain = 0
KHA3 181006Z 18015KT 26/20 A2992 RMK A01 T02610195  RH  067%=      5-min Rain = 0
KHA3 181007Z 18014KT 26/20 A2992 RMK A01 T02610195  RH  067%=      5-min Rain = 0
KHA3 181008Z 17014KT 26/20 A2992 RMK A01 T02620195  RH  067%=      5-min Rain = 0
KHA3 181009Z 18013KT 26/20 A2992 RMK A01 T02610196  RH  067%=      5-min Rain = 0
KHA3 181010Z 17015KT 26/20 A2992 RMK A01 T02610196  RH  067%=      5-min Rain = 0
KHA3 181011Z 18014G19KT 26/20 A2992 RMK A01 T02610195  RH  067%=      5-min Rain = 0
KHA3 181012Z 17014KT 26/20 A2992 RMK A01 T02610195  RH  067%=      5-min Rain = 0
KHA3 181013Z 17015KT 26/20 A2992 RMK A01 T02610196  RH  067%=      5-min Rain = 0
KHA3 181014Z 17014KT 26/20 A2992 RMK A01 T02610196  RH  067%=      5-min Rain = 0
KHA3 181015Z 17014KT 26/20 A2992 RMK A01 T02610196  RH  067%=      5-min Rain = 0
KHA3 181016Z 18015KT 26/20 A2992 RMK A01 T02610196  RH  067%=      5-min Rain = 0
KHA3 181017Z 17014KT 26/20 A2992 RMK A01 T02610196  RH  067%=      5-min Rain = 0
KHA3 181018Z 18014KT 26/20 A2992 RMK A01 T02610196  RH  068%=      5-min Rain = 0
KHA3 181019Z 18014KT 26/20 A2992 RMK A01 T02610196  RH  068%=      5-min Rain = 0
KHA3 181020Z 17015KT 26/20 A2992 RMK A01 T02600196  RH  068%=      5-min Rain = 0
KHA3 181021Z 18013KT 26/20 A2992 RMK A01 T02600196  RH  068%=      5-min Rain = 0
KHA3 181022Z 18016G21KT 26/20 A2992 RMK A01 T02600196  RH  068%=      5-min Rain = 0
KHA3 181023Z 18014KT 26/20 A2992 RMK A01 T02600196  RH  068%=      5-min Rain = 0
KHA3 181024Z 18013KT 26/20 A2992 RMK A01 T02600196  RH  068%=      5-min Rain = 0
KHA3 181025Z 18015KT 26/20 A2992 RMK A01 T02600197  RH  068%=      5-min Rain = 0
KHA3 181026Z 18013KT 26/20 A2992 RMK A01 T02590196  RH  068%=      5-min Rain = 0
KHA3 181027Z 18014KT 26/20 A2992 RMK A01 T02600197  RH  068%=      5-min Rain = 0
KHA3 181028Z 18014KT 26/20 A2992 RMK A01 T02590196  RH  068%=      5-min Rain = 0
KHA3 181029Z 18013KT 26/20 A2992 RMK A01 T02590196  RH  068%=      5-min Rain = 0
KHA3 181030Z 18012KT 26/20 A2992 RMK A01 T02590196  RH  068%=      5-min Rain = 0
KHA3 181031Z 18012KT 26/20 A2992 RMK A01 T02590197  RH  069%=      5-min Rain = 0
KHA3 181032Z 18013KT 26/20 A2992 RMK A01 T02580197  RH  069%=      5-min Rain = 0
KHA3 181033Z 18011KT 26/20 A2992 RMK A01 T02580197  RH  069%=      5-min Rain = 0
KHA3 181034Z 18012KT 26/20 A2992 RMK A01 T02580197  RH  069%=      5-min Rain = 0
KHA3 181035Z 18014KT 26/20 A2992 RMK A01 T02580197  RH  069%=      5-min Rain = 0
KHA3 181036Z 18012KT 26/20 A2993 RMK A01 T02580197  RH  069%=      5-min Rain = 0
KHA3 181037Z 18013KT 26/20 A2993 RMK A01 T02580197  RH  069%=      5-min Rain = 0
KHA3 181038Z 18013KT 26/20 A2993 RMK A01 T02580197  RH  069%=      5-min Rain = 0
KHA3 181039Z 18012KT 26/20 A2993 RMK A01 T02580197  RH  069%=      5-min Rain = 0
KHA3 181040Z 18011KT 26/20 A2993 RMK A01 T02580197  RH  069%=      5-min Rain = 0
KHA3 181041Z 18013KT 26/20 A2993 RMK A01 T02570197  RH  069%=      5-min Rain = 0
KHA3 181042Z 18012KT 26/20 A2993 RMK A01 T02570197  RH  070%=      5-min Rain = 0
KHA3 181043Z 18013KT 26/20 A2992 RMK A01 T02570197  RH  070%=      5-min Rain = 0
KHA3 181044Z 18013KT 26/20 A2992 RMK A01 T02570197  RH  069%=      5-min Rain = 0
KHA3 181045Z 18015KT 26/20 A2992 RMK A01 T02570197  RH  069%=      5-min Rain = 0
KHA3 181046Z 18012KT 26/20 A2992 RMK A01 T02570197  RH  069%=      5-min Rain = 0
KHA3 181047Z 18014KT 26/20 A2993 RMK A01 T02570197  RH  070%=      5-min Rain = 0
KHA3 181048Z 18014KT 26/20 A2993 RMK A01 T02570198  RH  070%=      5-min Rain = 0
KHA3 181049Z 18014KT 26/20 A2993 RMK A01 T02570198  RH  070%=      5-min Rain = 0
KHA3 181050Z 18013KT 26/20 A2993 RMK A01 T02580198  RH  070%=      5-min Rain = 0
KHA3 181051Z 18013KT 26/20 A2993 RMK A01 T02570198  RH  070%=      5-min Rain = 0
KHA3 181052Z 18014KT 26/20 A2993 RMK A01 T02570198  RH  070%=      5-min Rain = 0
KHA3 181053Z 18014KT 26/20 A2993 RMK A01 T02570198  RH  070%=      5-min Rain = 0
KHA3 181054Z 18013KT 26/20 A2993 RMK A01 T02570198  RH  070%=      5-min Rain = 0
KHA3 181055Z 18013KT 26/20 A2993 RMK A01 T02570198  RH  070%=      5-min Rain = 0
KHA3 181056Z 18013KT 26/20 A2993 RMK A01 T02570198  RH  070%=      5-min Rain = 0
KHA3 181057Z 18013KT 26/20 A2993 RMK A01 T02570198  RH  070%=      5-min Rain = 0
KHA3 181058Z 18013KT 26/20 A2993 RMK A01 T02570198  RH  070%=      5-min Rain = 0
KHA3 181059Z 18012KT 26/20 A2993 RMK A01 T02570198  RH  070%=      5-min Rain = 0
KHA3 181100Z 18013KT 26/20 A2993 RMK A01 T02570199  RH  070%=      5-min Rain = 0
KHA3 181101Z 18013KT 26/20 A2993 RMK A01 T02570199  RH  070%=      5-min Rain = 0
KHA3 181102Z 18013KT 26/20 A2993 RMK A01 T02570199  RH  070%=      5-min Rain = 0
KHA3 181103Z 18013KT 26/20 A2993 RMK A01 T02570199  RH  070%=      5-min Rain = 0
KHA3 181104Z 18014KT 26/20 A2993 RMK A01 T02570199  RH  070%=      5-min Rain = 0
KHA3 181105Z 18015KT 26/20 A2993 RMK A01 T02570199  RH  070%=      5-min Rain = 0
KHA3 181106Z 18012KT 26/20 A2993 RMK A01 T02580199  RH  070%=      5-min Rain = 0
KHA3 181107Z 18013KT 26/20 A2993 RMK A01 T02580199  RH  070%=      5-min Rain = 0
KHA3 181108Z 18013KT 26/20 A2993 RMK A01 T02580199  RH  070%=      5-min Rain = 0
KHA3 181109Z 18010KT 26/20 A2994 RMK A01 T02580199  RH  070%=      5-min Rain = 0
KHA3 181110Z 18012KT 26/20 A2994 RMK A01 T02570200  RH  070%=      5-min Rain = 0
KHA3 181111Z 18011KT 26/20 A2994 RMK A01 T02570200  RH  070%=      5-min Rain = 0
KHA3 181112Z 18013KT 26/20 A2994 RMK A01 T02570199  RH  071%=      5-min Rain = 0
KHA3 181113Z 18012KT 26/20 A2994 RMK A01 T02570200  RH  071%=      5-min Rain = 0
KHA3 181114Z 18012KT 26/20 A2994 RMK A01 T02570200  RH  071%=      5-min Rain = 0
KHA3 181115Z 18011KT 26/20 A2994 RMK A01 T02570200  RH  071%=      5-min Rain = 0
KHA3 181116Z 18013KT 26/20 A2993 RMK A01 T02560200  RH  071%=      5-min Rain = 0
KHA3 181117Z 18013KT 26/20 A2993 RMK A01 T02560200  RH  071%=      5-min Rain = 0
KHA3 181118Z 18013KT 26/20 A2993 RMK A01 T02560200  RH  071%=      5-min Rain = 0
KHA3 181119Z 18012KT 26/20 A2993 RMK A01 T02560200  RH  071%=      5-min Rain = 0
KHA3 181120Z 18012KT 26/20 A2993 RMK A01 T02560200  RH  071%=      5-min Rain = 0
KHA3 181121Z 18012KT 26/20 A2993 RMK A01 T02560200  RH  071%=      5-min Rain = 0
KHA3 181122Z 18010KT 26/20 A2993 RMK A01 T02560201  RH  071%=      5-min Rain = 0
KHA3 181123Z 18012KT 26/20 A2993 RMK A01 T02560201  RH  072%=      5-min Rain = 0
KHA3 181124Z 18012KT 26/20 A2993 RMK A01 T02550201  RH  072%=      5-min Rain = 0
KHA3 181125Z 18012KT 26/20 A2993 RMK A01 T02550201  RH  072%=      5-min Rain = 0
KHA3 181126Z 18012KT 26/20 A2993 RMK A01 T02550201  RH  072%=      5-min Rain = 0
KHA3 181127Z 18010KT 26/20 A2993 RMK A01 T02560201  RH  072%=      5-min Rain = 0
KHA3 181128Z 18012KT 26/20 A2993 RMK A01 T02560201  RH  072%=      5-min Rain = 0
KHA3 181129Z 18014KT 26/20 A2993 RMK A01 T02560202  RH  072%=      5-min Rain = 0
KHA3 181130Z 18012KT 26/20 A2993 RMK A01 T02560202  RH  072%=      5-min Rain = 0
KHA3 181131Z 18013KT 26/20 A2993 RMK A01 T02560202  RH  072%=      5-min Rain = 0
KHA3 181132Z 18013KT 26/20 A2993 RMK A01 T02560202  RH  072%=      5-min Rain = 0
KHA3 181133Z 18012KT 26/20 A2993 RMK A01 T02560202  RH  072%=      5-min Rain = 0
KHA3 181134Z 18011KT 26/20 A2993 RMK A01 T02560202  RH  072%=      5-min Rain = 0
KHA3 181135Z 18011KT 26/20 A2993 RMK A01 T02560202  RH  072%=      5-min Rain = 0
KHA3 181136Z 18012KT 26/20 A2993 RMK A01 T02560202  RH  072%=      5-min Rain = 0
KHA3 181137Z 18011KT 26/20 A2993 RMK A01 T02560202  RH  072%=      5-min Rain = 0
KHA3 181138Z 18012KT 26/20 A2993 RMK A01 T02560203  RH  072%=      5-min Rain = 0
KHA3 181139Z 18013KT 26/20 A2993 RMK A01 T02550203  RH  073%=      5-min Rain = 0
KHA3 181140Z 18014KT 26/20 A2993 RMK A01 T02560203  RH  072%=      5-min Rain = 0
KHA3 181141Z 18011KT 26/20 A2993 RMK A01 T02560203  RH  072%=      5-min Rain = 0
KHA3 181142Z 18011KT 26/20 A2993 RMK A01 T02570203  RH  072%=      5-min Rain = 0
KHA3 181143Z 18012KT 26/20 A2993 RMK A01 T02560204  RH  073%=      5-min Rain = 0
KHA3 181144Z 18011KT 26/20 A2993 RMK A01 T02560203  RH  073%=      5-min Rain = 0
KHA3 181145Z 18010KT 26/20 A2993 RMK A01 T02560203  RH  073%=      5-min Rain = 0
KHA3 181146Z 19010KT 26/20 A2994 RMK A01 T02560204  RH  073%=      5-min Rain = 0
KHA3 181147Z 19011KT 26/20 A2994 RMK A01 T02550203  RH  073%=      5-min Rain = 0
KHA3 181148Z 19011KT 26/20 A2994 RMK A01 T02560204  RH  073%=      5-min Rain = 0
KHA3 181149Z 19012KT 26/20 A2994 RMK A01 T02550204  RH  073%=      5-min Rain = 0
KHA3 181150Z 19011KT 26/20 A2994 RMK A01 T02550203  RH  073%=      5-min Rain = 0
KHA3 181151Z 18011KT 26/20 A2994 RMK A01 T02560204  RH  073%=      5-min Rain = 0
KHA3 181152Z 18011KT 26/20 A2994 RMK A01 T02560204  RH  073%=      5-min Rain = 0
KHA3 181153Z 18010KT 26/20 A2994 RMK A01 T02560204  RH  073%=      5-min Rain = 0
KHA3 181154Z 18011KT 26/20 A2994 RMK A01 T02560204  RH  073%=      5-min Rain = 0
KHA3 181155Z 18013KT 26/21 A2994 RMK A01 T02560205  RH  073%=      5-min Rain = 0
KHA3 181156Z 18012KT 26/20 A2994 RMK A01 T02560204  RH  073%=      5-min Rain = 0
KHA3 181157Z 19010KT 26/20 A2994 RMK A01 T02560204  RH  073%=      5-min Rain = 0
KHA3 181158Z 18011KT 26/20 A2994 RMK A01 T02560204  RH  073%=      5-min Rain = 0
KHA3 181159Z 18012KT 26/21 A2994 RMK A01 T02560205  RH  073%=      5-min Rain = 0
KHA3 181200Z 19009KT 26/21 A2994 RMK A01 T02560205  RH  073%=      5-min Rain = 0
KHA3 181201Z 18011KT 26/21 A2994 RMK A01 T02560205  RH  074%=      5-min Rain = 0
KHA3 181202Z 18012KT 26/21 A2994 RMK A01 T02560205  RH  074%=      5-min Rain = 0
KHA3 181203Z 18012KT 26/21 A2994 RMK A01 T02560205  RH  073%=      5-min Rain = 0
KHA3 181204Z 18011KT 26/21 A2994 RMK A01 T02560205  RH  073%=      5-min Rain = 0
KHA3 181205Z 18010KT 26/21 A2994 RMK A01 T02560205  RH  073%=      5-min Rain = 0
KHA3 181206Z 19010KT 26/21 A2994 RMK A01 T02560205  RH  073%=      5-min Rain = 0
KHA3 181207Z 18011KT 26/21 A2994 RMK A01 T02560206  RH  073%=      5-min Rain = 0
KHA3 181208Z 18011KT 26/21 A2994 RMK A01 T02570206  RH  074%=      5-min Rain = 0
KHA3 181209Z 19009KT 26/21 A2994 RMK A01 T02570206  RH  074%=      5-min Rain = 0
KHA3 181210Z 19010KT 26/21 A2994 RMK A01 T02560206  RH  074%=      5-min Rain = 0
KHA3 181211Z 19009KT 26/21 A2994 RMK A01 T02560206  RH  074%=      5-min Rain = 0
KHA3 181212Z 18009KT 26/21 A2994 RMK A01 T02560206  RH  074%=      5-min Rain = 0
KHA3 181213Z 18011KT 26/21 A2994 RMK A01 T02560206  RH  074%=      5-min Rain = 0
KHA3 181214Z 19010KT 26/21 A2994 RMK A01 T02570206  RH  074%=      5-min Rain = 0
KHA3 181215Z 19010KT 26/21 A2994 RMK A01 T02570206  RH  073%=      5-min Rain = 0
KHA3 181216Z 18011KT 26/21 A2994 RMK A01 T02570206  RH  073%=      5-min Rain = 0
KHA3 181217Z 18011G16KT 26/21 A2994 RMK A01 T02580207  RH  073%=      5-min Rain = 0
KHA3 181218Z 18011KT 26/21 A2994 RMK A01 T02580207  RH  073%=      5-min Rain = 0
KHA3 181219Z 18011KT 26/21 A2995 RMK A01 T02580207  RH  073%=      5-min Rain = 0
KHA3 181220Z 18011KT 26/21 A2995 RMK A01 T02580207  RH  073%=      5-min Rain = 0
KHA3 181221Z 18011KT 26/21 A2995 RMK A01 T02590207  RH  073%=      5-min Rain = 0
KHA3 181222Z 18011KT 26/21 A2995 RMK A01 T02590207  RH  073%=      5-min Rain = 0
KHA3 181223Z 19012KT 26/21 A2995 RMK A01 T02590207  RH  073%=      5-min Rain = 0
KHA3 181224Z 18011KT 26/21 A2995 RMK A01 T02590207  RH  073%=      5-min Rain = 0
KHA3 181225Z 19011KT 26/21 A2995 RMK A01 T02590207  RH  073%=      5-min Rain = 0
KHA3 181226Z 18010KT 26/21 A2995 RMK A01 T02590208  RH  073%=      5-min Rain = 0
KHA3 181227Z 18011KT 26/21 A2995 RMK A01 T02600208  RH  073%=      5-min Rain = 0
KHA3 181228Z 18009KT 26/21 A2995 RMK A01 T02600208  RH  073%=      5-min Rain = 0
KHA3 181229Z 19009KT 26/21 A2995 RMK A01 T02600208  RH  073%=      5-min Rain = 0
KHA3 181230Z 18011KT 26/21 A2995 RMK A01 T02600208  RH  073%=      5-min Rain = 0
KHA3 181231Z 18013KT 26/21 A2995 RMK A01 T02610208  RH  073%=      5-min Rain = 0
KHA3 181232Z 18013KT 26/21 A2995 RMK A01 T02610209  RH  073%=      5-min Rain = 0
KHA3 181233Z 19010KT 26/21 A2995 RMK A01 T02610209  RH  073%=      5-min Rain = 0
KHA3 181234Z 19011KT 26/21 A2995 RMK A01 T02610209  RH  073%=      5-min Rain = 0
KHA3 181235Z 18012KT 26/21 A2995 RMK A01 T02620209  RH  073%=      5-min Rain = 0
KHA3 181236Z 18012KT 26/21 A2995 RMK A01 T02620209  RH  073%=      5-min Rain = 0
KHA3 181237Z 18014KT 26/21 A2995 RMK A01 T02620209  RH  073%=      5-min Rain = 0
KHA3 181238Z 19012KT 26/21 A2995 RMK A01 T02620209  RH  073%=      5-min Rain = 0
KHA3 181239Z 19011KT 26/21 A2995 RMK A01 T02620209  RH  073%=      5-min Rain = 0
KHA3 181240Z 18013KT 26/21 A2995 RMK A01 T02630210  RH  073%=      5-min Rain = 0
KHA3 181241Z 18012KT 26/21 A2994 RMK A01 T02630210  RH  072%=      5-min Rain = 0
KHA3 181242Z 18013KT 26/21 A2994 RMK A01 T02630210  RH  072%=      5-min Rain = 0
KHA3 181243Z 18011KT 26/21 A2994 RMK A01 T02630210  RH  072%=      5-min Rain = 0
KHA3 181244Z 18013KT 26/21 A2994 RMK A01 T02640210  RH  072%=      5-min Rain = 0
KHA3 181245Z 18012KT 26/21 A2994 RMK A01 T02640210  RH  072%=      5-min Rain = 0
KHA3 181246Z 18014KT 26/21 A2994 RMK A01 T02640210  RH  072%=      5-min Rain = 0
KHA3 181247Z 18016KT 26/21 A2994 RMK A01 T02640210  RH  072%=      5-min Rain = 0
KHA3 181248Z 19013KT 27/21 A2994 RMK A01 T02650211  RH  072%=      5-min Rain = 0
KHA3 181249Z 18013KT 27/21 A2994 RMK A01 T02650211  RH  072%=      5-min Rain = 0
KHA3 181250Z 18012KT 27/21 A2994 RMK A01 T02650211  RH  072%=      5-min Rain = 0
KHA3 181251Z 18015KT 27/21 A2994 RMK A01 T02650211  RH  072%=      5-min Rain = 0
KHA3 181252Z 18015KT 27/21 A2994 RMK A01 T02650211  RH  072%=      5-min Rain = 0
KHA3 181253Z 19016KT 27/21 A2994 RMK A01 T02660211  RH  072%=      5-min Rain = 0
KHA3 181254Z 19014KT 27/21 A2994 RMK A01 T02660211  RH  072%=      5-min Rain = 0
KHA3 181255Z 18013KT 27/21 A2994 RMK A01 T02660211  RH  072%=      5-min Rain = 0
KHA3 181256Z 19016KT 27/21 A2994 RMK A01 T02670211  RH  072%=      5-min Rain = 0
KHA3 181257Z 19013KT 27/21 A2994 RMK A01 T02670211  RH  071%=      5-min Rain = 0
KHA3 181258Z 18012G18KT 27/21 A2994 RMK A01 T02670212  RH  072%=      5-min Rain = 0
KHA3 181259Z 19015KT 27/21 A2994 RMK A01 T02680212  RH  071%=      5-min Rain = 0
KHA3 181300Z 19015KT 27/21 A2994 RMK A01 T02680212  RH  071%=      5-min Rain = 0
KHA3 181301Z 19013KT 27/21 A2994 RMK A01 T02680212  RH  071%=      5-min Rain = 0
KHA3 181302Z 19013KT 27/21 A2994 RMK A01 T02680212  RH  071%=      5-min Rain = 0
KHA3 181303Z 19013G18KT 27/21 A2994 RMK A01 T02690212  RH  071%=      5-min Rain = 0
KHA3 181304Z 19014KT 27/21 A2994 RMK A01 T02690212  RH  071%=      5-min Rain = 0
KHA3 181305Z 19010KT 27/21 A2994 RMK A01 T02690213  RH  071%=      5-min Rain = 0
KHA3 181306Z 19013KT 27/21 A2994 RMK A01 T02690213  RH  071%=      5-min Rain = 0
KHA3 181307Z 17014KT 27/21 A2994 RMK A01 T02700213  RH  071%=      5-min Rain = 0
KHA3 181308Z 19014KT 27/21 A2994 RMK A01 T02700212  RH  071%=      5-min Rain = 0
KHA3 181309Z 18014KT 27/21 A2994 RMK A01 T02700213  RH  071%=      5-min Rain = 0
KHA3 181310Z 18017KT 27/21 A2994 RMK A01 T02700212  RH  071%=      5-min Rain = 0
KHA3 181311Z 19016KT 27/21 A2994 RMK A01 T02700213  RH  071%=      5-min Rain = 0
KHA3 181312Z 19017KT 27/21 A2994 RMK A01 T02700213  RH  071%=      5-min Rain = 0
KHA3 181313Z 19015G20KT 27/21 A2994 RMK A01 T02700213  RH  071%=      5-min Rain = 0
KHA3 181314Z 19015G20KT 27/21 A2994 RMK A01 T02700213  RH  071%=      5-min Rain = 0
KHA3 181315Z 20015KT 27/21 A2994 RMK A01 T02700213  RH  071%=      5-min Rain = 0
KHA3 181316Z 20014KT 27/21 A2994 RMK A01 T02710213  RH  071%=      5-min Rain = 0
KHA3 181317Z 19016KT 27/21 A2994 RMK A01 T02710213  RH  070%=      5-min Rain = 0
KHA3 181318Z 19016KT 27/21 A2994 RMK A01 T02720213  RH  070%=      5-min Rain = 0
KHA3 181319Z 18018KT 27/21 A2994 RMK A01 T02720213  RH  070%=      5-min Rain = 0
KHA3 181320Z 19015G20KT 27/21 A2994 RMK A01 T02720213  RH  070%=      5-min Rain = 0
KHA3 181321Z 19015KT 27/21 A2994 RMK A01 T02720214  RH  070%=      5-min Rain = 0
KHA3 181322Z 19016KT 27/21 A2994 RMK A01 T02730213  RH  070%=      5-min Rain = 0
KHA3 181323Z 19017KT 27/21 A2994 RMK A01 T02730214  RH  070%=      5-min Rain = 0
KHA3 181324Z 19017KT 27/21 A2994 RMK A01 T02730213  RH  070%=      5-min Rain = 0
KHA3 181325Z 20015KT 27/21 A2994 RMK A01 T02740214  RH  070%=      5-min Rain = 0
KHA3 181326Z 19016G21KT 27/21 A2994 RMK A01 T02740214  RH  070%=      5-min Rain = 0
KHA3 181327Z 18017KT 28/21 A2994 RMK A01 T02750214  RH  070%=      5-min Rain = 0
KHA3 181328Z 19019KT 28/21 A2994 RMK A01 T02750214  RH  069%=      5-min Rain = 0
KHA3 181329Z 19018KT 28/21 A2994 RMK A01 T02750214  RH  069%=      5-min Rain = 0
KHA3 181330Z 19020KT 28/21 A2994 RMK A01 T02750214  RH  069%=      5-min Rain = 0
KHA3 181331Z 18018G25KT 28/21 A2994 RMK A01 T02750214  RH  070%=      5-min Rain = 0
KHA3 181332Z 19019KT 28/21 A2993 RMK A01 T02750213  RH  069%=      5-min Rain = 0
KHA3 181333Z 19016KT 28/21 A2994 RMK A01 T02750214  RH  069%=      5-min Rain = 0
KHA3 181334Z 18015G20KT 28/22 A2994 RMK A01 T02760215  RH  069%=      5-min Rain = 0
KHA3 181335Z 18019G25KT 28/22 A2994 RMK A01 T02770215  RH  069%=      5-min Rain = 0
KHA3 181336Z 19018KT 28/21 A2994 RMK A01 T02770214  RH  068%=      5-min Rain = 0
KHA3 181337Z 19015G20KT 28/21 A2994 RMK A01 T02770214  RH  069%=      5-min Rain = 0
KHA3 181338Z 19017KT 28/21 A2994 RMK A01 T02770214  RH  069%=      5-min Rain = 0
KHA3 181339Z 19016KT 28/21 A2994 RMK A01 T02770214  RH  068%=      5-min Rain = 0
KHA3 181340Z 19019KT 28/21 A2993 RMK A01 T02780214  RH  068%=      5-min Rain = 0
KHA3 181341Z 19015KT 28/22 A2994 RMK A01 T02780215  RH  069%=      5-min Rain = 0
KHA3 181342Z 19019KT 28/22 A2993 RMK A01 T02790215  RH  068%=      5-min Rain = 0
KHA3 181343Z 19016KT 28/22 A2993 RMK A01 T02790215  RH  068%=      5-min Rain = 0
KHA3 181344Z 19019G25KT 28/22 A2993 RMK A01 T02800215  RH  068%=      5-min Rain = 0
KHA3 181345Z 19020KT 28/21 A2993 RMK A01 T02800214  RH  068%=      5-min Rain = 0
KHA3 181346Z 19019G24KT 28/21 A2993 RMK A01 T02790214  RH  068%=      5-min Rain = 0
KHA3 181347Z 19021KT 28/21 A2993 RMK A01 T02790214  RH  068%=      5-min Rain = 0
KHA3 181348Z 19022KT 28/21 A2993 RMK A01 T02790214  RH  068%=      5-min Rain = 0
KHA3 181349Z 19018KT 28/21 A2993 RMK A01 T02790214  RH  068%=      5-min Rain = 0
KHA3 181350Z 19015KT 28/22 A2994 RMK A01 T02790215  RH  068%=      5-min Rain = 0
KHA3 181351Z 18016KT 28/22 A2994 RMK A01 T02810216  RH  068%=      5-min Rain = 0
KHA3 181352Z 19016G23KT 28/22 A2994 RMK A01 T02820216  RH  067%=      5-min Rain = 0
KHA3 181353Z 19020KT 28/22 A2994 RMK A01 T02830216  RH  067%=      5-min Rain = 0
KHA3 181354Z 18019KT 28/22 A2994 RMK A01 T02830216  RH  067%=      5-min Rain = 0
KHA3 181355Z 19016KT 28/22 A2994 RMK A01 T02820215  RH  067%=      5-min Rain = 0
KHA3 181356Z 20014G20KT 28/22 A2994 RMK A01 T02830217  RH  067%=      5-min Rain = 0
KHA3 181357Z 19017G22KT 29/22 A2994 RMK A01 T02850217  RH  066%=      5-min Rain = 0
KHA3 181358Z 20019KT 29/22 A2994 RMK A01 T02850215  RH  066%=      5-min Rain = 0
KHA3 181359Z 19018KT 28/22 A2994 RMK A01 T02840216  RH  066%=      5-min Rain = 0
KHA3 181400Z 20017G23KT 28/22 A2994 RMK A01 T02840216  RH  067%=      5-min Rain = 0
KHA3 181401Z 19021KT 28/22 A2994 RMK A01 T02840215  RH  066%=      5-min Rain = 0
KHA3 181402Z 20020G26KT 28/22 A2993 RMK A01 T02830215  RH  067%=      5-min Rain = 0
KHA3 181403Z 19023KT 28/22 A2993 RMK A01 T02840215  RH  066%=      5-min Rain = 0
KHA3 181404Z 20023KT 28/21 A2993 RMK A01 T02830214  RH  066%=      5-min Rain = 0
KHA3 181405Z 20021KT 28/21 A2993 RMK A01 T02830214  RH  066%=      5-min Rain = 0
KHA3 181406Z 20020KT 28/21 A2993 RMK A01 T02840214  RH  066%=      5-min Rain = 0
KHA3 181407Z 20018KT 28/22 A2993 RMK A01 T02840215  RH  066%=      5-min Rain = 0
KHA3 181408Z 19017KT 29/22 A2993 RMK A01 T02850216  RH  066%=      5-min Rain = 0
KHA3 181409Z 20019KT 29/22 A2993 RMK A01 T02860216  RH  066%=      5-min Rain = 0
KHA3 181410Z 20021KT 29/22 A2993 RMK A01 T02870215  RH  065%=      5-min Rain = 0
KHA3 181411Z 20019G24KT 29/22 A2993 RMK A01 T02870215  RH  065%=      5-min Rain = 0
KHA3 181412Z 19019KT 29/22 A2993 RMK A01 T02870216  RH  065%=      5-min Rain = 0
KHA3 181413Z 19017G22KT 29/22 A2993 RMK A01 T02870216  RH  065%=      5-min Rain = 0
KHA3 181414Z 20022KT 29/22 A2993 RMK A01 T02890215  RH  064%=      5-min Rain = 0
KHA3 181415Z 19020KT 29/22 A2993 RMK A01 T02870215  RH  065%=      5-min Rain = 0
KHA3 181416Z 19021KT 29/22 A2993 RMK A01 T02870215  RH  065%=      5-min Rain = 0
KHA3 181417Z 19021KT 29/22 A2993 RMK A01 T02870215  RH  065%=      5-min Rain = 0
KHA3 181418Z 20021KT 29/22 A2993 RMK A01 T02870215  RH  065%=      5-min Rain = 0
KHA3 181419Z 20019G24KT 29/22 A2993 RMK A01 T02870215  RH  065%=      5-min Rain = 0
KHA3 181420Z 20021G26KT 29/22 A2993 RMK A01 T02880215  RH  065%=      5-min Rain = 0
KHA3 181421Z 20022G29KT 29/22 A2993 RMK A01 T02880215  RH  065%=      5-min Rain = 0
KHA3 181422Z 19022KT 29/22 A2993 RMK A01 T02880215  RH  065%=      5-min Rain = 0
KHA3 181423Z 19020KT 29/21 A2993 RMK A01 T02880214  RH  065%=      5-min Rain = 0
KHA3 181424Z 20020G26KT 29/22 A2993 RMK A01 T02880215  RH  065%=      5-min Rain = 0
KHA3 181425Z 19018KT 29/22 A2993 RMK A01 T02890215  RH  065%=      5-min Rain = 0
KHA3 181426Z 20020KT 29/22 A2993 RMK A01 T02900215  RH  064%=      5-min Rain = 0
KHA3 181427Z 20020KT 29/22 A2993 RMK A01 T02900215  RH  064%=      5-min Rain = 0
KHA3 181428Z 20023KT 29/22 A2993 RMK A01 T02910215  RH  064%=      5-min Rain = 0
KHA3 181429Z 20021KT 29/22 A2993 RMK A01 T02900215  RH  064%=      5-min Rain = 0
KHA3 181430Z 19019G24KT 29/22 A2993 RMK A01 T02890215  RH  064%=      5-min Rain = 0
KHA3 181431Z 19020G25KT 29/22 A2993 RMK A01 T02900215  RH  064%=      5-min Rain = 0
KHA3 181432Z 20021KT 29/22 A2993 RMK A01 T02910215  RH  064%=      5-min Rain = 0
KHA3 181433Z 19018G24KT 29/22 A2993 RMK A01 T02910215  RH  064%=      5-min Rain = 0
KHA3 181434Z 20021G26KT 29/22 A2993 RMK A01 T02920215  RH  063%=      5-min Rain = 0
KHA3 181435Z 19022KT 29/22 A2993 RMK A01 T02930215  RH  063%=      5-min Rain = 0
KHA3 181436Z 19022KT 29/22 A2993 RMK A01 T02920215  RH  063%=      5-min Rain = 0
KHA3 181437Z 20023KT 29/21 A2993 RMK A01 T02920214  RH  063%=      5-min Rain = 0
KHA3 181438Z 20019G24KT 29/22 A2993 RMK A01 T02910215  RH  064%=      5-min Rain = 0
KHA3 181439Z 19019KT 29/22 A2993 RMK A01 T02910215  RH  064%=      5-min Rain = 0
KHA3 181440Z 19021KT 29/22 A2993 RMK A01 T02920215  RH  063%=      5-min Rain = 0
KHA3 181441Z 19021G27KT 29/22 A2993 RMK A01 T02920215  RH  063%=      5-min Rain = 0
KHA3 181442Z 20018KT 29/22 A2993 RMK A01 T02930216  RH  063%=      5-min Rain = 0
KHA3 181443Z 19020G25KT 30/22 A2993 RMK A01 T02960216  RH  062%=      5-min Rain = 0
KHA3 181444Z 19019KT 30/22 A2993 RMK A01 T02960216  RH  062%=      5-min Rain = 0
KHA3 181445Z 19022KT 30/22 A2993 RMK A01 T02970215  RH  062%=      5-min Rain = 0
KHA3 181446Z 18023KT 30/22 A2993 RMK A01 T02960215  RH  062%=      5-min Rain = 0
KHA3 181447Z 19019KT 30/22 A2993 RMK A01 T02950215  RH  062%=      5-min Rain = 0
KHA3 181448Z 18022KT 30/22 A2993 RMK A01 T02950215  RH  062%=      5-min Rain = 0
KHA3 181449Z 18021KT 30/21 A2993 RMK A01 T02950214  RH  062%=      5-min Rain = 0
KHA3 181450Z 19019KT 30/22 A2993 RMK A01 T02950215  RH  062%=      5-min Rain = 0
KHA3 181451Z 19018KT 30/22 A2993 RMK A01 T02960216  RH  062%=      5-min Rain = 0
KHA3 181452Z 19016KT 30/22 A2993 RMK A01 T02960216  RH  062%=      5-min Rain = 0
KHA3 181453Z 19017KT 30/22 A2993 RMK A01 T02970218  RH  062%=      5-min Rain = 0
KHA3 181454Z 19019KT 30/22 A2993 RMK A01 T02990217  RH  061%=      5-min Rain = 0
KHA3 181455Z 18019KT 30/22 A2993 RMK A01 T02990216  RH  061%=      5-min Rain = 0
KHA3 181456Z 18018KT 30/22 A2993 RMK A01 T02980217  RH  062%=      5-min Rain = 0
KHA3 181457Z 18020KT 30/22 A2993 RMK A01 T02980216  RH  061%=      5-min Rain = 0
KHA3 181458Z 18020KT 30/22 A2993 RMK A01 T02990217  RH  061%=      5-min Rain = 0
KHA3 181459Z 18017KT 30/22 A2993 RMK A01 T03000217  RH  061%=      5-min Rain = 0
KHA3 181500Z 18016KT 30/22 A2993 RMK A01 T03010217  RH  061%=      5-min Rain = 0
KHA3 181501Z 19019KT 30/22 A2993 RMK A01 T03010216  RH  060%=      5-min Rain = 0
KHA3 181502Z 20018KT 30/22 A2993 RMK A01 T03010217  RH  061%=      5-min Rain = 0
KHA3 181503Z 19018KT 30/22 A2993 RMK A01 T03020217  RH  061%=      5-min Rain = 0
KHA3 181504Z 19019KT 30/22 A2993 RMK A01 T03020217  RH  060%=      5-min Rain = 0
KHA3 181505Z 18018G23KT 30/22 A2993 RMK A01 T03020216  RH  060%=      5-min Rain = 0
KHA3 181506Z 19019KT 30/22 A2993 RMK A01 T03020217  RH  060%=      5-min Rain = 0
KHA3 181507Z 19022KT 30/22 A2993 RMK A01 T03020216  RH  060%=      5-min Rain = 0
KHA3 181508Z 20019KT 30/22 A2993 RMK A01 T03010216  RH  060%=      5-min Rain = 0
KHA3 181509Z 20014KT 30/22 A2993 RMK A01 T03020218  RH  061%=      5-min Rain = 0
KHA3 181510Z 19015KT 31/22 A2993 RMK A01 T03070219  RH  060%=      5-min Rain = 0
KHA3 181511Z 21017KT 31/22 A2993 RMK A01 T03100219  RH  058%=      5-min Rain = 0
KHA3 181512Z 20018KT 31/22 A2993 RMK A01 T03100217  RH  058%=      5-min Rain = 0
KHA3 181513Z 19018KT 31/22 A2993 RMK A01 T03080217  RH  058%=      5-min Rain = 0
KHA3 181514Z 18020G26KT 31/22 A2993 RMK A01 T03070217  RH  059%=      5-min Rain = 0
KHA3 181515Z 20022KT 31/22 A2993 RMK A01 T03050215  RH  059%=      5-min Rain = 0
KHA3 181516Z 20021KT 30/22 A2992 RMK A01 T03040216  RH  059%=      5-min Rain = 0
KHA3 181517Z 19021KT 30/22 A2992 RMK A01 T03040215  RH  059%=      5-min Rain = 0
KHA3 181518Z 19021KT 30/21 A2993 RMK A01 T03040214  RH  059%=      5-min Rain = 0
KHA3 181519Z 19020KT 30/22 A2992 RMK A01 T03040216  RH  059%=      5-min Rain = 0
KHA3 181520Z 19019KT 31/22 A2992 RMK A01 T03050216  RH  059%=      5-min Rain = 0
KHA3 181521Z 19019KT 31/22 A2993 RMK A01 T03060216  RH  059%=      5-min Rain = 0
KHA3 181522Z 19019KT 31/22 A2992 RMK A01 T03060215  RH  058%=      5-min Rain = 0
KHA3 181523Z 19018KT 31/22 A2993 RMK A01 T03050216  RH  059%=      5-min Rain = 0
KHA3 181524Z 21019KT 31/22 A2993 RMK A01 T03050217  RH  059%=      5-min Rain = 0
KHA3 181525Z 20018KT 31/22 A2992 RMK A01 T03060216  RH  059%=      5-min Rain = 0
KHA3 181526Z 20018KT 31/22 A2992 RMK A01 T03060217  RH  059%=      5-min Rain = 0
KHA3 181527Z 19018KT 31/22 A2992 RMK A01 T03080217  RH  058%=      5-min Rain = 0
KHA3 181528Z 18017G22KT 31/22 A2992 RMK A01 T03090218  RH  058%=      5-min Rain = 0
KHA3 181529Z 18017KT 31/22 A2992 RMK A01 T03100217  RH  058%=      5-min Rain = 0
KHA3 181530Z 19015KT 31/22 A2993 RMK A01 T03120219  RH  058%=      5-min Rain = 0
KHA3 181531Z 18019KT 31/22 A2992 RMK A01 T03140219  RH  057%=      5-min Rain = 0
KHA3 181532Z 18019KT 31/22 A2993 RMK A01 T03140217  RH  056%=      5-min Rain = 0
KHA3 181533Z 21017KT 31/22 A2992 RMK A01 T03120218  RH  057%=      5-min Rain = 0
KHA3 181534Z 19017KT 31/22 A2993 RMK A01 T03110216  RH  057%=      5-min Rain = 0
KHA3 181535Z 20016KT 31/22 A2992 RMK A01 T03110217  RH  058%=      5-min Rain = 0
KHA3 181536Z 19015G24KT 31/22 A2992 RMK A01 T03120220  RH  058%=      5-min Rain = 0
KHA3 181537Z 18022G27KT 31/22 A2992 RMK A01 T03140216  RH  056%=      5-min Rain = 0
KHA3 181538Z 18022KT 31/22 A2992 RMK A01 T03140216  RH  056%=      5-min Rain = 0
KHA3 181539Z 18022KT 31/21 A2992 RMK A01 T03140214  RH  055%=      5-min Rain = 0
KHA3 181540Z 18019G24KT 31/21 A2992 RMK A01 T03120214  RH  056%=      5-min Rain = 0
KHA3 181541Z 20019KT 31/22 A2992 RMK A01 T03130216  RH  056%=      5-min Rain = 0
KHA3 181542Z 20020G25KT 31/21 A2992 RMK A01 T03140214  RH  055%=      5-min Rain = 0
KHA3 181543Z 19020KT 31/22 A2992 RMK A01 T03130216  RH  056%=      5-min Rain = 0
KHA3 181544Z 19020KT 31/22 A2992 RMK A01 T03140215  RH  056%=      5-min Rain = 0
KHA3 181545Z 19019KT 31/21 A2992 RMK A01 T03140214  RH  056%=      5-min Rain = 0
KHA3 181546Z 20018KT 31/22 A2992 RMK A01 T03140215  RH  056%=      5-min Rain = 0
KHA3 181547Z 19020KT 31/22 A2992 RMK A01 T03140215  RH  056%=      5-min Rain = 0
KHA3 181548Z 19015G21KT 31/22 A2992 RMK A01 T03130216  RH  056%=      5-min Rain = 0
KHA3 181549Z 18019KT 31/22 A2992 RMK A01 T03140217  RH  056%=      5-min Rain = 0
KHA3 181550Z 20016KT 32/22 A2992 RMK A01 T03180217  RH  055%=      5-min Rain = 0
KHA3 181551Z 20019G24KT 32/22 A2992 RMK A01 T03200216  RH  054%=      5-min Rain = 0
KHA3 181552Z 20019KT 32/22 A2992 RMK A01 T03200216  RH  054%=      5-min Rain = 0
KHA3 181553Z 20018KT 32/22 A2992 RMK A01 T03190216  RH  055%=      5-min Rain = 0
KHA3 181554Z 20018KT 32/22 A2992 RMK A01 T03180216  RH  055%=      5-min Rain = 0
KHA3 181555Z 19015KT 32/22 A2992 RMK A01 T03190218  RH  055%=      5-min Rain = 0
KHA3 181556Z 20015G20KT 32/22 A2992 RMK A01 T03220220  RH  055%=      5-min Rain = 0
KHA3 181557Z 20017KT 32/22 A2992 RMK A01 T03240216  RH  053%=      5-min Rain = 0
KHA3 181558Z 19016KT 32/22 A2992 RMK A01 T03230218  RH  054%=      5-min Rain = 0
KHA3 181559Z 18018KT 32/22 A2992 RMK A01 T03220218  RH  054%=      5-min Rain = 0
KHA3 181600Z 18021KT 32/22 A2992 RMK A01 T03220215  RH  054%=      5-min Rain = 0
KHA3 181601Z 18021KT 32/22 A2992 RMK A01 T03210215  RH  054%=      5-min Rain = 0
KHA3 181602Z 19019KT 32/22 A2992 RMK A01 T03190215  RH  054%=      5-min Rain = 0
KHA3 181603Z 19022KT 32/22 A2992 RMK A01 T03190215  RH  054%=      5-min Rain = 0
KHA3 181604Z 18021KT 32/22 A2992 RMK A01 T03190215  RH  054%=      5-min Rain = 0
KHA3 181605Z 18022KT 32/21 A2992 RMK A01 T03200214  RH  054%=      5-min Rain = 0
KHA3 181606Z 20017KT 32/22 A2992 RMK A01 T03190215  RH  054%=      5-min Rain = 0
KHA3 181607Z 19017KT 32/22 A2992 RMK A01 T03190215  RH  054%=      5-min Rain = 0
KHA3 181608Z 19017KT 32/22 A2992 RMK A01 T03190216  RH  055%=      5-min Rain = 0
KHA3 181609Z 17019KT 32/22 A2992 RMK A01 T03210216  RH  054%=      5-min Rain = 0
KHA3 181610Z 18017KT 32/22 A2992 RMK A01 T03220217  RH  054%=      5-min Rain = 0
KHA3 181611Z 18015G20KT 32/22 A2992 RMK A01 T03220218  RH  054%=      5-min Rain = 0
KHA3 181612Z 18018G23KT 32/22 A2992 RMK A01 T03230217  RH  054%=      5-min Rain = 0
KHA3 181613Z 19016KT 32/22 A2992 RMK A01 T03240216  RH  053%=      5-min Rain = 0
KHA3 181614Z 18015KT 33/22 A2992 RMK A01 T03250215  RH  053%=      5-min Rain = 0
KHA3 181615Z 19017G22KT 32/22 A2992 RMK A01 T03240216  RH  053%=      5-min Rain = 0
KHA3 181616Z 19016KT 32/22 A2992 RMK A01 T03230216  RH  053%=      5-min Rain = 0
KHA3 181617Z 18014KT 32/22 A2992 RMK A01 T03220218  RH  054%=      5-min Rain = 0
KHA3 181618Z 19013G18KT 33/22 A2992 RMK A01 T03260221  RH  054%=      5-min Rain = 0
KHA3 181619Z 19018KT 33/22 A2992 RMK A01 T03310217  RH  051%=      5-min Rain = 0
KHA3 181620Z 20018KT 33/22 A2992 RMK A01 T03290217  RH  052%=      5-min Rain = 0
KHA3 181621Z 19016KT 33/22 A2992 RMK A01 T03280216  RH  052%=      5-min Rain = 0
KHA3 181622Z 18017G22KT 33/22 A2992 RMK A01 T03270217  RH  052%=      5-min Rain = 0
KHA3 181623Z 20013KT 33/22 A2992 RMK A01 T03290218  RH  052%=      5-min Rain = 0
KHA3 181624Z 18017G22KT 33/22 A2992 RMK A01 T03310218  RH  052%=      5-min Rain = 0
KHA3 181625Z 17021G26KT 33/22 A2992 RMK A01 T03310216  RH  051%=      5-min Rain = 0
KHA3 181626Z 18020KT 33/22 A2992 RMK A01 T03280215  RH  051%=      5-min Rain = 0
KHA3 181627Z 19018KT 33/22 A2992 RMK A01 T03280216  RH  052%=      5-min Rain = 0
KHA3 181628Z 19015KT 33/22 A2992 RMK A01 T03280215  RH  052%=      5-min Rain = 0
KHA3 181629Z 19016G23KT 33/22 A2992 RMK A01 T03290217  RH  052%=      5-min Rain = 0
KHA3 181630Z 20017G22KT 33/22 A2992 RMK A01 T03300217  RH  051%=      5-min Rain = 0
KHA3 181631Z 20014KT 33/22 A2992 RMK A01 T03310216  RH  051%=      5-min Rain = 0
KHA3 181632Z 20017G22KT 33/22 A2992 RMK A01 T03310218  RH  051%=      5-min Rain = 0
KHA3 181633Z 19021KT 33/21 A2992 RMK A01 T03320213  RH  050%=      5-min Rain = 0
KHA3 181634Z 20018KT 33/21 A2992 RMK A01 T03300214  RH  051%=      5-min Rain = 0
KHA3 181635Z 19018KT 33/21 A2992 RMK A01 T03310213  RH  050%=      5-min Rain = 0
KHA3 181636Z 20014KT 33/21 A2992 RMK A01 T03290212  RH  050%=      5-min Rain = 0
KHA3 181637Z 21016KT 33/22 A2992 RMK A01 T03280215  RH  051%=      5-min Rain = 0
KHA3 181638Z 21017KT 33/22 A2992 RMK A01 T03310215  RH  051%=      5-min Rain = 0
KHA3 181639Z 19019KT 33/22 A2992 RMK A01 T03330216  RH  050%=      5-min Rain = 0
KHA3 181640Z 18020KT 33/22 A2992 RMK A01 T03340216  RH  050%=      5-min Rain = 0
KHA3 181641Z 18018KT 33/22 A2992 RMK A01 T03340215  RH  050%=      5-min Rain = 0
KHA3 181642Z 19016KT 33/22 A2992 RMK A01 T03320215  RH  050%=      5-min Rain = 0
KHA3 181643Z 19016KT 33/22 A2992 RMK A01 T03310215  RH  051%=      5-min Rain = 0
KHA3 181644Z 18020KT 33/22 A2992 RMK A01 T03320215  RH  050%=      5-min Rain = 0
KHA3 181645Z 18018KT 33/21 A2992 RMK A01 T03310214  RH  050%=      5-min Rain = 0
KHA3 181646Z 18015KT 33/21 A2992 RMK A01 T03290214  RH  051%=      5-min Rain = 0
KHA3 181647Z 21014G19KT 33/22 A2992 RMK A01 T03310217  RH  051%=      5-min Rain = 0
KHA3 181648Z 20016G21KT 33/22 A2992 RMK A01 T03340216  RH  050%=      5-min Rain = 0
KHA3 181649Z 19014KT 34/22 A2992 RMK A01 T03370218  RH  050%=      5-min Rain = 0
KHA3 181650Z 18018KT 34/22 A2992 RMK A01 T03370217  RH  050%=      5-min Rain = 0
KHA3 181651Z 19015KT 34/22 A2991 RMK A01 T03350215  RH  050%=      5-min Rain = 0
KHA3 181652Z 18014KT 33/22 A2991 RMK A01 T03340219  RH  051%=      5-min Rain = 0
KHA3 181653Z 19018KT 34/22 A2991 RMK A01 T03380217  RH  049%=      5-min Rain = 0
KHA3 181654Z 20018KT 34/21 A2991 RMK A01 T03380214  RH  048%=      5-min Rain = 0
KHA3 181655Z 20015G20KT 34/21 A2991 RMK A01 T03360213  RH  049%=      5-min Rain = 0
KHA3 181656Z 21014KT 34/21 A2991 RMK A01 T03350213  RH  049%=      5-min Rain = 0
KHA3 181657Z 21015KT 34/22 A2991 RMK A01 T03370215  RH  049%=      5-min Rain = 0
KHA3 181658Z 20018KT 34/22 A2991 RMK A01 T03390217  RH  049%=      5-min Rain = 0
KHA3 181659Z 19021KT 34/22 A2991 RMK A01 T03410216  RH  048%=      5-min Rain = 0
KHA3 181700Z 20015KT 34/21 A2991 RMK A01 T03390214  RH  048%=      5-min Rain = 0
KHA3 181701Z 18013KT 34/22 A2991 RMK A01 T03390215  RH  049%=      5-min Rain = 0
KHA3 181702Z 20019KT 34/22 A2991 RMK A01 T03400215  RH  048%=      5-min Rain = 0
KHA3 181703Z 20018KT 34/21 A2991 RMK A01 T03380213  RH  048%=      5-min Rain = 0
KHA3 181704Z 18022KT 34/21 A2991 RMK A01 T03370214  RH  048%=      5-min Rain = 0
KHA3 181705Z 18021KT 34/21 A2991 RMK A01 T03380213  RH  048%=      5-min Rain = 0
KHA3 181706Z 19018KT 34/21 A2991 RMK A01 T03380214  RH  048%=      5-min Rain = 0
KHA3 181707Z 20016KT 34/21 A2991 RMK A01 T03370213  RH  049%=      5-min Rain = 0
KHA3 181708Z 19012KT 34/22 A2991 RMK A01 T03360215  RH  049%=      5-min Rain = 0
KHA3 181709Z 18018G23KT 34/22 A2991 RMK A01 T03400219  RH  049%=      5-min Rain = 0
KHA3 181710Z 17019G24KT 34/22 A2991 RMK A01 T03420215  RH  048%=      5-min Rain = 0
KHA3 181711Z 18019KT 34/21 A2991 RMK A01 T03400214  RH  048%=      5-min Rain = 0
KHA3 181712Z 18019KT 34/21 A2991 RMK A01 T03380213  RH  048%=      5-min Rain = 0
KHA3 181713Z 17018KT 34/21 A2991 RMK A01 T03370214  RH  049%=      5-min Rain = 0
KHA3 181714Z 19016G21KT 34/21 A2991 RMK A01 T03380214  RH  048%=      5-min Rain = 0
KHA3 181715Z 19019KT 34/22 A2991 RMK A01 T03420216  RH  048%=      5-min Rain = 0
KHA3 181716Z 17019KT 35/21 A2991 RMK A01 T03450213  RH  046%=      5-min Rain = 0
KHA3 181717Z 18015KT 34/21 A2991 RMK A01 T03440214  RH  047%=      5-min Rain = 0
KHA3 181718Z 18014KT 34/22 A2991 RMK A01 T03440215  RH  047%=      5-min Rain = 0
KHA3 181719Z 19017G22KT 35/22 A2991 RMK A01 T03450215  RH  047%=      5-min Rain = 0
KHA3 181720Z 19017G22KT 35/21 A2991 RMK A01 T03450214  RH  047%=      5-min Rain = 0
KHA3 181721Z 19013KT 34/22 A2991 RMK A01 T03440215  RH  047%=      5-min Rain = 0
KHA3 181722Z 18014KT 34/22 A299 RMK A01 T03440217  RH  048%=      5-min Rain = 0
KHA3 181723Z 20017G22KT 35/22 A299 RMK A01 T03480215  RH  046%=      5-min Rain = 0
KHA3 181724Z 20019KT 35/21 A299 RMK A01 T03480212  RH  045%=      5-min Rain = 0
KHA3 181725Z 20015KT 35/21 A299 RMK A01 T03460210  RH  045%=      5-min Rain = 0
KHA3 181726Z 19016KT 34/21 A299 RMK A01 T03440212  RH  046%=      5-min Rain = 0
KHA3 181727Z 19016KT 35/21 A299 RMK A01 T03450213  RH  046%=      5-min Rain = 0
KHA3 181728Z 18017KT 35/21 A299 RMK A01 T03480213  RH  046%=      5-min Rain = 0
KHA3 181729Z 19017KT 35/22 A299 RMK A01 T03470215  RH  046%=      5-min Rain = 0
KHA3 181730Z 20016KT 35/22 A299 RMK A01 T03470216  RH  046%=      5-min Rain = 0
KHA3 181731Z 20019KT 35/21 A299 RMK A01 T03500211  RH  045%=      5-min Rain = 0
KHA3 181732Z 19016KT 35/21 A299 RMK A01 T03480212  RH  045%=      5-min Rain = 0
KHA3 181733Z 18016KT 35/21 A299 RMK A01 T03470212  RH  046%=      5-min Rain = 0
KHA3 181734Z 18014KT 35/21 A299 RMK A01 T03450212  RH  046%=      5-min Rain = 0
KHA3 181735Z 19021KT 35/21 A299 RMK A01 T03470211  RH  045%=      5-min Rain = 0
KHA3 181736Z 19018KT 35/21 A299 RMK A01 T03480210  RH  045%=      5-min Rain = 0
KHA3 181737Z 19015KT 35/21 A299 RMK A01 T03490211  RH  045%=      5-min Rain = 0
KHA3 181738Z 18018KT 35/21 A299 RMK A01 T03510213  RH  045%=      5-min Rain = 0
KHA3 181739Z 18018KT 35/21 A299 RMK A01 T03500212  RH  045%=      5-min Rain = 0
KHA3 181740Z 19013KT 35/21 A299 RMK A01 T03480214  RH  046%=      5-min Rain = 0
KHA3 181741Z 18015G20KT 35/21 A299 RMK A01 T03490213  RH  045%=      5-min Rain = 0
KHA3 181742Z 18017KT 35/21 A299 RMK A01 T03500212  RH  045%=      5-min Rain = 0
KHA3 181743Z 18019KT 35/21 A299 RMK A01 T03500212  RH  045%=      5-min Rain = 0
KHA3 181744Z 19019KT 35/21 A2989 RMK A01 T03500211  RH  044%=      5-min Rain = 0
KHA3 181745Z 17015KT 35/21 A299 RMK A01 T03500212  RH  045%=      5-min Rain = 0
KHA3 181746Z 18014G22KT 35/21 A299 RMK A01 T03520213  RH  045%=      5-min Rain = 0
KHA3 181747Z 19019KT 35/21 A299 RMK A01 T03530212  RH  044%=      5-min Rain = 0
KHA3 181748Z 19013KT 35/21 A299 RMK A01 T03520212  RH  044%=      5-min Rain = 0
KHA3 181749Z 19011KT 35/21 A2989 RMK A01 T03500214  RH  045%=      5-min Rain = 0
KHA3 181750Z 17014KT 35/21 A2989 RMK A01 T03510214  RH  045%=      5-min Rain = 0
KHA3 181751Z 18012KT 35/21 A2989 RMK A01 T03510212  RH  044%=      5-min Rain = 0
KHA3 181752Z 18018KT 35/21 A2989 RMK A01 T03520213  RH  045%=      5-min Rain = 0
KHA3 181753Z 17018KT 35/21 A2989 RMK A01 T03520212  RH  044%=      5-min Rain = 0
KHA3 181754Z 17020KT 35/21 A2989 RMK A01 T03520212  RH  044%=      5-min Rain = 0
KHA3 181755Z 18016KT 35/21 A2989 RMK A01 T03500212  RH  045%=      5-min Rain = 0
KHA3 181756Z 18017KT 35/21 A2989 RMK A01 T03510212  RH  044%=      5-min Rain = 0
KHA3 181757Z 18018KT 35/21 A2989 RMK A01 T03530213  RH  044%=      5-min Rain = 0
KHA3 181758Z 18014KT 35/21 A2989 RMK A01 T03540213  RH  044%=      5-min Rain = 0
KHA3 181759Z 17016KT 35/21 A2989 RMK A01 T03540212  RH  044%=      5-min Rain = 0
KHA3 181800Z 17016KT 35/21 A2989 RMK A01 T03520212  RH  044%=      5-min Rain = 0
KHA3 181801Z 17015KT 35/21 A2989 RMK A01 T03510212  RH  044%=      5-min Rain = 0
KHA3 181802Z 17015KT 35/21 A2989 RMK A01 T03520212  RH  044%=      5-min Rain = 0
KHA3 181803Z 17018KT 35/21 A2989 RMK A01 T03540213  RH  044%=      5-min Rain = 0
KHA3 181804Z 17020KT 36/21 A2989 RMK A01 T03570212  RH  043%=      5-min Rain = 0
KHA3 181805Z 18018KT 36/21 A2989 RMK A01 T03550210  RH  043%=      5-min Rain = 0
KHA3 181806Z 19013KT 35/21 A2989 RMK A01 T03530210  RH  043%=      5-min Rain = 0
KHA3 181807Z 18013KT 35/21 A2989 RMK A01 T03530209  RH  043%=      5-min Rain = 0
KHA3 181808Z 19011KT 35/21 A2989 RMK A01 T03520213  RH  045%=      5-min Rain = 0
KHA3 181809Z 17014G21KT 36/22 A2989 RMK A01 T03570217  RH  044%=      5-min Rain = 0
KHA3 181810Z 18019KT 36/21 A2989 RMK A01 T03620214  RH  043%=      5-min Rain = 0
KHA3 181811Z 20018KT 36/21 A2989 RMK A01 T03610210  RH  041%=      5-min Rain = 0
KHA3 181812Z 21016KT 36/21 A2989 RMK A01 T03600210  RH  042%=      5-min Rain = 0
KHA3 181813Z 20016G22KT 36/21 A2989 RMK A01 T03600210  RH  042%=      5-min Rain = 0
KHA3 181814Z 20016KT 36/21 A2989 RMK A01 T03600209  RH  042%=      5-min Rain = 0
KHA3 181815Z 18015KT 36/21 A2989 RMK A01 T03590212  RH  042%=      5-min Rain = 0
KHA3 181816Z 18015KT 36/21 A2989 RMK A01 T03580208  RH  042%=      5-min Rain = 0
KHA3 181817Z 18017KT 36/21 A2989 RMK A01 T03560208  RH  042%=      5-min Rain = 0
KHA3 181818Z 19016G22KT 35/21 A2989 RMK A01 T03540208  RH  043%=      5-min Rain = 0
KHA3 181819Z 18014KT 35/21 A2989 RMK A01 T03530209  RH  043%=      5-min Rain = 0
KHA3 181820Z 17016KT 36/21 A2989 RMK A01 T03550211  RH  043%=      5-min Rain = 0
KHA3 181821Z 17013KT 36/21 A2989 RMK A01 T03550212  RH  043%=      5-min Rain = 0
KHA3 181822Z 17014KT 36/21 A2989 RMK A01 T03570212  RH  043%=      5-min Rain = 0
KHA3 181823Z 16013KT 36/21 A2989 RMK A01 T03580213  RH  043%=      5-min Rain = 0
KHA3 181824Z 17015KT 36/21 A2989 RMK A01 T03580213  RH  043%=      5-min Rain = 0
KHA3 181825Z 17014KT 36/21 A2989 RMK A01 T03590212  RH  043%=      5-min Rain = 0
KHA3 181826Z 17010KT 36/21 A2989 RMK A01 T03590212  RH  042%=      5-min Rain = 0
KHA3 181827Z 17008KT 36/21 A2989 RMK A01 T03570212  RH  043%=      5-min Rain = 0
KHA3 181828Z 21014G20KT 36/21 A2989 RMK A01 T03590214  RH  043%=      5-min Rain = 0
KHA3 181829Z 20015KT 36/21 A2989 RMK A01 T03630209  RH  041%=      5-min Rain = 0
KHA3 181830Z 20014G21KT 36/21 A2989 RMK A01 T03640213  RH  041%=      5-min Rain = 0
KHA3 181831Z 20015KT 37/21 A2989 RMK A01 T03650210  RH  041%=      5-min Rain = 0
KHA3 181832Z 20012KT 36/21 A2989 RMK A01 T03630212  RH  042%=      5-min Rain = 0
KHA3 181833Z 19017G24KT 36/21 A2989 RMK A01 T03620211  RH  042%=      5-min Rain = 0
KHA3 181834Z 20017KT 36/21 A2989 RMK A01 T03610210  RH  042%=      5-min Rain = 0
KHA3 181835Z 19017KT 36/21 A2989 RMK A01 T03620210  RH  041%=      5-min Rain = 0
KHA3 181836Z 19014G20KT 36/21 A2989 RMK A01 T03610208  RH  041%=      5-min Rain = 0
KHA3 181837Z 18015KT 36/21 A2989 RMK A01 T03600210  RH  042%=      5-min Rain = 0
KHA3 181838Z 18013KT 36/21 A2989 RMK A01 T03600207  RH  041%=      5-min Rain = 0
KHA3 181839Z 17013G18KT 36/21 A2989 RMK A01 T03600210  RH  042%=      5-min Rain = 0
KHA3 181840Z 18016KT 36/21 A2989 RMK A01 T03600210  RH  042%=      5-min Rain = 0
KHA3 181841Z 17015KT 36/21 A2989 RMK A01 T03600210  RH  042%=      5-min Rain = 0
KHA3 181842Z 16012KT 36/21 A2989 RMK A01 T03600211  RH  042%=      5-min Rain = 0
KHA3 181843Z 19014KT 36/21 A2989 RMK A01 T03620212  RH  042%=      5-min Rain = 0
KHA3 181844Z 17011KT 36/21 A2989 RMK A01 T03630211  RH  041%=      5-min Rain = 0
KHA3 181845Z 16012KT 36/21 A2989 RMK A01 T03620212  RH  042%=      5-min Rain = 0
KHA3 181846Z 18012KT 36/21 A2989 RMK A01 T03630211  RH  041%=      5-min Rain = 0
KHA3 181847Z 18013KT 36/21 A2989 RMK A01 T03640213  RH  042%=      5-min Rain = 0
KHA3 181848Z 20015KT 37/21 A2988 RMK A01 T03680211  RH  040%=      5-min Rain = 0
KHA3 181849Z 20014KT 37/21 A2988 RMK A01 T03680206  RH  039%=      5-min Rain = 0
KHA3 181850Z 19016KT 37/21 A2988 RMK A01 T03650208  RH  040%=      5-min Rain = 0
KHA3 181851Z 18013G18KT 36/21 A2988 RMK A01 T03640210  RH  041%=      5-min Rain = 0
KHA3 181852Z 17014KT 37/21 A2988 RMK A01 T03660209  RH  040%=      5-min Rain = 0
KHA3 181853Z 15012KT 37/21 A2988 RMK A01 T03680210  RH  040%=      5-min Rain = 0
KHA3 181854Z 16013KT 37/21 A2988 RMK A01 T03670208  RH  040%=      5-min Rain = 0
KHA3 181855Z 18015KT 37/21 A2988 RMK A01 T03670207  RH  039%=      5-min Rain = 0
KHA3 181856Z 18014G19KT 37/21 A2988 RMK A01 T03650206  RH  040%=      5-min Rain = 0
KHA3 181857Z 19013KT 37/20 A2988 RMK A01 T03660204  RH  039%=      5-min Rain = 0
KHA3 181858Z 20012G18KT 37/21 A2988 RMK A01 T03680209  RH  040%=      5-min Rain = 0
KHA3 181859Z 19015KT 37/21 A2988 RMK A01 T03720208  RH  039%=      5-min Rain = 0
KHA3 181900Z 20013KT 37/21 A2988 RMK A01 T03700207  RH  039%=      5-min Rain = 0
KHA3 181901Z 19012KT 37/21 A2988 RMK A01 T03680209  RH  040%=      5-min Rain = 0
KHA3 181902Z 19018G24KT 37/21 A2988 RMK A01 T03700208  RH  039%=      5-min Rain = 0
KHA3 181903Z 20017KT 37/21 A2988 RMK A01 T03730207  RH  038%=      5-min Rain = 0
KHA3 181904Z 20016KT 37/21 A2988 RMK A01 T03720206  RH  038%=      5-min Rain = 0
KHA3 181905Z 19015KT 37/21 A2988 RMK A01 T03710207  RH  039%=      5-min Rain = 0
KHA3 181906Z 18015KT 37/20 A2988 RMK A01 T03700202  RH  038%=      5-min Rain = 0
KHA3 181907Z 18011KT 37/20 A2988 RMK A01 T03670204  RH  039%=      5-min Rain = 0
KHA3 181908Z 19011KT 37/21 A2988 RMK A01 T03670205  RH  039%=      5-min Rain = 0
KHA3 181909Z 17017KT 37/21 A2988 RMK A01 T03680208  RH  039%=      5-min Rain = 0
KHA3 181910Z 17014KT 37/21 A2988 RMK A01 T03690209  RH  040%=      5-min Rain = 0
KHA3 181911Z 17013KT 37/21 A2988 RMK A01 T03700209  RH  040%=      5-min Rain = 0
KHA3 181912Z 19014KT 37/21 A2988 RMK A01 T03700211  RH  040%=      5-min Rain = 0
KHA3 181913Z 19013KT 37/20 A2988 RMK A01 T03730203  RH  037%=      5-min Rain = 0
KHA3 181914Z 20016KT 37/20 A2987 RMK A01 T03720202  RH  037%=      5-min Rain = 0
KHA3 181915Z 21014KT 37/20 A2987 RMK A01 T03710198  RH  037%=      5-min Rain = 0
KHA3 181916Z 18013KT 37/20 A2987 RMK A01 T03700202  RH  038%=      5-min Rain = 0
KHA3 181917Z 17014KT 37/20 A2987 RMK A01 T03710202  RH  038%=      5-min Rain = 0
KHA3 181918Z 18016KT 37/20 A2987 RMK A01 T03720202  RH  037%=      5-min Rain = 0
KHA3 181919Z 20015KT 37/20 A2987 RMK A01 T03740201  RH  037%=      5-min Rain = 0
KHA3 181920Z 18015KT 37/20 A2987 RMK A01 T03740202  RH  037%=      5-min Rain = 0
KHA3 181921Z 19011KT 37/20 A2987 RMK A01 T03720202  RH  037%=      5-min Rain = 0
KHA3 181922Z 18012KT 37/21 A2987 RMK A01 T03730205  RH  038%=      5-min Rain = 0
KHA3 181923Z 18014KT 38/21 A2987 RMK A01 T03750207  RH  038%=      5-min Rain = 0
KHA3 181924Z 18015KT 38/20 A2987 RMK A01 T03760204  RH  037%=      5-min Rain = 0
KHA3 181925Z 17016KT 37/20 A2987 RMK A01 T03740203  RH  037%=      5-min Rain = 0
KHA3 181926Z 18015KT 37/20 A2987 RMK A01 T03730203  RH  037%=      5-min Rain = 0
KHA3 181927Z 17015KT 37/20 A2987 RMK A01 T03720202  RH  037%=      5-min Rain = 0
KHA3 181928Z 16014KT 37/21 A2987 RMK A01 T03710205  RH  038%=      5-min Rain = 0
KHA3 181929Z 18015KT 37/21 A2987 RMK A01 T03740206  RH  038%=      5-min Rain = 0
KHA3 181930Z 19013G19KT 38/20 A2987 RMK A01 T03750202  RH  036%=      5-min Rain = 0
KHA3 181931Z 19011KT 38/21 A2987 RMK A01 T03760205  RH  037%=      5-min Rain = 0
KHA3 181932Z 18011G16KT 38/21 A2987 RMK A01 T03770205  RH  037%=      5-min Rain = 0
KHA3 181933Z 19017KT 38/21 A2987 RMK A01 T03790206  RH  037%=      5-min Rain = 0
KHA3 181934Z 19015KT 38/20 A2987 RMK A01 T03780202  RH  036%=      5-min Rain = 0
KHA3 181935Z 20012KT 37/20 A2987 RMK A01 T03740203  RH  037%=      5-min Rain = 0
KHA3 181936Z 17013KT 37/20 A2987 RMK A01 T03730201  RH  037%=      5-min Rain = 0
KHA3 181937Z 18012KT 37/20 A2987 RMK A01 T03740202  RH  037%=      5-min Rain = 0
KHA3 181938Z 18017KT 38/20 A2986 RMK A01 T03760202  RH  036%=      5-min Rain = 0
KHA3 181939Z 17017KT 38/20 A2986 RMK A01 T03770199  RH  035%=      5-min Rain = 0
KHA3 181940Z 18017KT 38/20 A2986 RMK A01 T03760201  RH  036%=      5-min Rain = 0
KHA3 181941Z 16013KT 38/20 A2986 RMK A01 T03750201  RH  036%=      5-min Rain = 0
KHA3 181942Z 16014KT 38/20 A2986 RMK A01 T03760203  RH  037%=      5-min Rain = 0
KHA3 181943Z 16016KT 38/20 A2986 RMK A01 T03780202  RH  036%=      5-min Rain = 0
KHA3 181944Z 17015KT 38/20 A2986 RMK A01 T03770201  RH  036%=      5-min Rain = 0
KHA3 181945Z 17014KT 38/20 A2986 RMK A01 T03750202  RH  037%=      5-min Rain = 0
KHA3 181946Z 17014KT 38/20 A2986 RMK A01 T03750201  RH  036%=      5-min Rain = 0
KHA3 181947Z 18013KT 38/20 A2986 RMK A01 T03780204  RH  037%=      5-min Rain = 0
KHA3 181948Z 18012KT 38/20 A2986 RMK A01 T03800202  RH  036%=      5-min Rain = 0
KHA3 181949Z 18009KT 38/20 A2986 RMK A01 T03780204  RH  037%=      5-min Rain = 0
KHA3 181950Z 19017G23KT 38/21 A2986 RMK A01 T03790206  RH  037%=      5-min Rain = 0
KHA3 181951Z 19020KT 38/20 A2986 RMK A01 T03810197  RH  034%=      5-min Rain = 0
KHA3 181952Z 20018KT 38/20 A2986 RMK A01 T03780196  RH  035%=      5-min Rain = 0
KHA3 181953Z 20016KT 38/20 A2986 RMK A01 T03780195  RH  035%=      5-min Rain = 0
KHA3 181954Z 19016KT 38/19 A2986 RMK A01 T03780194  RH  034%=      5-min Rain = 0
KHA3 181955Z 19015KT 38/20 A2986 RMK A01 T03780195  RH  035%=      5-min Rain = 0
KHA3 181956Z 20012KT 38/19 A2986 RMK A01 T03770194  RH  035%=      5-min Rain = 0
KHA3 181957Z 18008KT 38/20 A2986 RMK A01 T03790196  RH  034%=      5-min Rain = 0
KHA3 181958Z 18011KT 38/20 A2986 RMK A01 T03810197  RH  034%=      5-min Rain = 0
KHA3 181959Z 17012KT 38/20 A2986 RMK A01 T03800198  RH  035%=      5-min Rain = 0
KHA3 182000Z 19017KT 38/20 A2986 RMK A01 T03810201  RH  035%=      5-min Rain = 0
KHA3 182001Z 20016G22KT 39/20 A2986 RMK A01 T03870204  RH  035%=      5-min Rain = 0
KHA3 182002Z 19016KT 39/20 A2986 RMK A01 T03890200  RH  034%=      5-min Rain = 0
KHA3 182003Z 19012KT 39/20 A2986 RMK A01 T03870198  RH  034%=      5-min Rain = 0
KHA3 182004Z 21013KT 38/20 A2986 RMK A01 T03840199  RH  034%=      5-min Rain = 0
KHA3 182005Z 19014G19KT 38/20 A2986 RMK A01 T03830199  RH  034%=      5-min Rain = 0
KHA3 182006Z 18012KT 38/20 A2986 RMK A01 T03830200  RH  035%=      5-min Rain = 0
KHA3 182007Z 16012KT 38/20 A2986 RMK A01 T03830202  RH  035%=      5-min Rain = 0
KHA3 182008Z 17016KT 38/20 A2985 RMK A01 T03820202  RH  035%=      5-min Rain = 0
KHA3 182009Z 17017KT 38/20 A2985 RMK A01 T03820200  RH  035%=      5-min Rain = 0
KHA3 182010Z 18015KT 38/20 A2985 RMK A01 T03810201  RH  035%=      5-min Rain = 0
KHA3 182011Z 18015KT 38/20 A2985 RMK A01 T03820203  RH  036%=      5-min Rain = 0
KHA3 182012Z 17015KT 38/20 A2985 RMK A01 T03820203  RH  035%=      5-min Rain = 0
KHA3 182013Z 18017KT 38/20 A2985 RMK A01 T03830204  RH  035%=      5-min Rain = 0
KHA3 182014Z 18016G21KT 39/20 A2985 RMK A01 T03850204  RH  035%=      5-min Rain = 0
KHA3 182015Z 18020KT 39/20 A2985 RMK A01 T03850198  RH  034%=      5-min Rain = 0
KHA3 182016Z 17016KT 38/20 A2985 RMK A01 T03820197  RH  034%=      5-min Rain = 0
KHA3 182017Z 17014KT 38/19 A2985 RMK A01 T03800194  RH  034%=      5-min Rain = 0
KHA3 182018Z 17013G18KT 38/20 A2985 RMK A01 T03800197  RH  035%=      5-min Rain = 0
KHA3 182019Z 18017KT 38/20 A2985 RMK A01 T03840198  RH  034%=      5-min Rain = 0
KHA3 182020Z 18015KT 38/20 A2985 RMK A01 T03840197  RH  034%=      5-min Rain = 0
KHA3 182021Z 17016KT 38/20 A2985 RMK A01 T03810197  RH  034%=      5-min Rain = 0
KHA3 182022Z 17012KT 38/20 A2985 RMK A01 T03800196  RH  034%=      5-min Rain = 0
KHA3 182023Z 17013KT 38/20 A2985 RMK A01 T03800200  RH  035%=      5-min Rain = 0
KHA3 182024Z 18017G23KT 38/20 A2985 RMK A01 T03840198  RH  034%=      5-min Rain = 0
KHA3 182025Z 17018KT 38/19 A2985 RMK A01 T03840191  RH  033%=      5-min Rain = 0
KHA3 182026Z 17017KT 38/19 A2985 RMK A01 T03820192  RH  033%=      5-min Rain = 0
KHA3 182027Z 17018G23KT 38/19 A2985 RMK A01 T03830193  RH  033%=      5-min Rain = 0
KHA3 182028Z 16017G22KT 38/20 A2985 RMK A01 T03820196  RH  034%=      5-min Rain = 0
KHA3 182029Z 17017KT 38/20 A2985 RMK A01 T03820197  RH  034%=      5-min Rain = 0
KHA3 182030Z 19013KT 38/20 A2985 RMK A01 T03820202  RH  035%=      5-min Rain = 0
KHA3 182031Z 18011KT 39/20 A2985 RMK A01 T03860203  RH  035%=      5-min Rain = 0
KHA3 182032Z 16014G19KT 39/21 A2985 RMK A01 T03880205  RH  035%=      5-min Rain = 0
KHA3 182033Z 16018KT 39/21 A2985 RMK A01 T03890205  RH  035%=      5-min Rain = 0
KHA3 182034Z 16016KT 39/20 A2985 RMK A01 T03850201  RH  035%=      5-min Rain = 0
KHA3 182035Z 16015G20KT 38/20 A2984 RMK A01 T03810202  RH  036%=      5-min Rain = 0
KHA3 182036Z 17015KT 38/20 A2984 RMK A01 T03800201  RH  036%=      5-min Rain = 0
KHA3 182037Z 18013G18KT 38/20 A2984 RMK A01 T03790203  RH  036%=      5-min Rain = 0
KHA3 182038Z 18015KT 38/21 A2984 RMK A01 T03810205  RH  036%=      5-min Rain = 0
KHA3 182039Z 20014G19KT 38/19 A2984 RMK A01 T03840189  RH  032%=      5-min Rain = 0
KHA3 182040Z 20012G22KT 38/19 A2984 RMK A01 T03840189  RH  032%=      5-min Rain = 0
KHA3 182041Z 20021KT 39/19 A2984 RMK A01 T03870187  RH  031%=      5-min Rain = 0
KHA3 182042Z 20017KT 39/19 A2984 RMK A01 T03870185  RH  031%=      5-min Rain = 0
KHA3 182043Z 20018KT 39/18 A2984 RMK A01 T03870184  RH  031%=      5-min Rain = 0
KHA3 182044Z 19020KT 39/18 A2984 RMK A01 T03860182  RH  031%=      5-min Rain = 0
KHA3 182045Z 17016KT 39/19 A2984 RMK A01 T03860186  RH  031%=      5-min Rain = 0
KHA3 182046Z 17017KT 39/19 A2984 RMK A01 T03870189  RH  032%=      5-min Rain = 0
KHA3 182047Z 17012KT 39/19 A2984 RMK A01 T03850191  RH  033%=      5-min Rain = 0
KHA3 182048Z 17011KT 38/18 A2984 RMK A01 T03840182  RH  031%=      5-min Rain = 0
KHA3 182049Z 19010KT 38/19 A2984 RMK A01 T03840189  RH  032%=      5-min Rain = 0
KHA3 182050Z 20014G22KT 39/19 A2984 RMK A01 T03860190  RH  032%=      5-min Rain = 0
KHA3 182051Z 17018KT 39/18 A2984 RMK A01 T03880182  RH  030%=      5-min Rain = 0
KHA3 182052Z 17014KT 39/18 A2984 RMK A01 T03880180  RH  030%=      5-min Rain = 0
KHA3 182053Z 17013KT 39/18 A2984 RMK A01 T03860184  RH  031%=      5-min Rain = 0
KHA3 182054Z 17012KT 39/19 A2984 RMK A01 T03860190  RH  032%=      5-min Rain = 0
KHA3 182055Z 18013G21KT 39/20 A2984 RMK A01 T03850196  RH  033%=      5-min Rain = 0
KHA3 182056Z 18020KT 39/20 A2984 RMK A01 T03860198  RH  034%=      5-min Rain = 0
KHA3 182057Z 17014G19KT 39/20 A2984 RMK A01 T03850199  RH  034%=      5-min Rain = 0
KHA3 182058Z 16014KT 38/20 A2984 RMK A01 T03840200  RH  034%=      5-min Rain = 0
KHA3 182059Z 17014KT 39/20 A2984 RMK A01 T03850202  RH  035%=      5-min Rain = 0
KHA3 182100Z 17016G22KT 38/20 A2984 RMK A01 T03840203  RH  035%=      5-min Rain = 0
KHA3 182101Z 18018KT 39/20 A2984 RMK A01 T03860199  RH  034%=      5-min Rain = 0
KHA3 182102Z 18017KT 39/20 A2984 RMK A01 T03880195  RH  033%=      5-min Rain = 0
KHA3 182103Z 16013KT 38/21 A2984 RMK A01 T03840205  RH  035%=      5-min Rain = 0
KHA3 182104Z 19016G22KT 39/21 A2984 RMK A01 T03870206  RH  035%=      5-min Rain = 0
KHA3 182105Z 19018KT 39/20 A2983 RMK A01 T03880196  RH  033%=      5-min Rain = 0
KHA3 182106Z 19018G23KT 39/20 A2984 RMK A01 T03860197  RH  034%=      5-min Rain = 0
KHA3 182107Z 18020KT 39/20 A2984 RMK A01 T03860196  RH  033%=      5-min Rain = 0
KHA3 182108Z 18020KT 39/20 A2984 RMK A01 T03850195  RH  033%=      5-min Rain = 0
KHA3 182109Z 20012G17KT 38/19 A2984 RMK A01 T03820194  RH  034%=      5-min Rain = 0
KHA3 182110Z 17011KT 38/20 A2984 RMK A01 T03810196  RH  034%=      5-min Rain = 0
KHA3 182111Z 17014G19KT 38/20 A2983 RMK A01 T03830199  RH  034%=      5-min Rain = 0
KHA3 182112Z 16013KT 39/20 A2983 RMK A01 T03850197  RH  034%=      5-min Rain = 0
KHA3 182113Z 16015KT 38/20 A2983 RMK A01 T03840198  RH  034%=      5-min Rain = 0
KHA3 182114Z 17019G24KT 39/20 A2983 RMK A01 T03860199  RH  034%=      5-min Rain = 0
KHA3 182115Z 17020KT 39/19 A2983 RMK A01 T03860192  RH  032%=      5-min Rain = 0
KHA3 182116Z 17018KT 39/20 A2983 RMK A01 T03850196  RH  033%=      5-min Rain = 0
KHA3 182117Z 16015KT 38/20 A2983 RMK A01 T03840199  RH  034%=      5-min Rain = 0
KHA3 182118Z 16014G23KT 38/20 A2983 RMK A01 T03840201  RH  035%=      5-min Rain = 0
KHA3 182119Z 16022G29KT 39/20 A2983 RMK A01 T03870198  RH  033%=      5-min Rain = 0
KHA3 182120Z 17018KT 39/20 A2983 RMK A01 T03880198  RH  033%=      5-min Rain = 0
KHA3 182121Z 17019KT 39/20 A2983 RMK A01 T03890196  RH  033%=      5-min Rain = 0
KHA3 182122Z 17019KT 39/19 A2983 RMK A01 T03880192  RH  032%=      5-min Rain = 0
KHA3 182123Z 17014KT 38/19 A2983 RMK A01 T03840191  RH  033%=      5-min Rain = 0
KHA3 182124Z 17017KT 38/19 A2983 RMK A01 T03820192  RH  033%=      5-min Rain = 0
KHA3 182125Z 17021KT 38/19 A2983 RMK A01 T03830193  RH  033%=      5-min Rain = 0
KHA3 182126Z 18017KT 38/19 A2983 RMK A01 T03840188  RH  032%=      5-min Rain = 0
KHA3 182127Z 19014KT 39/19 A2983 RMK A01 T03850191  RH  033%=      5-min Rain = 0
KHA3 182128Z 19014KT 38/19 A2983 RMK A01 T03830191  RH  033%=      5-min Rain = 0
KHA3 182129Z 18015KT 38/19 A2983 RMK A01 T03800191  RH  033%=      5-min Rain = 0
KHA3 182130Z 18014KT 38/19 A2983 RMK A01 T03810193  RH  033%=      5-min Rain = 0
KHA3 182131Z 19015KT 39/20 A2983 RMK A01 T03850198  RH  034%=      5-min Rain = 0
KHA3 182132Z 19013KT 39/20 A2983 RMK A01 T03860199  RH  034%=      5-min Rain = 0
KHA3 182133Z 19013G18KT 39/20 A2983 RMK A01 T03890202  RH  034%=      5-min Rain = 0
KHA3 182134Z 17020KT 39/20 A2982 RMK A01 T03920198  RH  033%=      5-min Rain = 0
KHA3 182135Z 18018G23KT 39/20 A2982 RMK A01 T03880195  RH  033%=      5-min Rain = 0
KHA3 182136Z 17016G21KT 39/20 A2982 RMK A01 T03860197  RH  033%=      5-min Rain = 0
KHA3 182137Z 17019KT 39/20 A2983 RMK A01 T03860196  RH  033%=      5-min Rain = 0
KHA3 182138Z 17014G19KT 39/20 A2983 RMK A01 T03850200  RH  034%=      5-min Rain = 0
KHA3 182139Z 17016KT 39/20 A2983 RMK A01 T03880202  RH  034%=      5-min Rain = 0
KHA3 182140Z 18016G22KT 39/20 A2982 RMK A01 T03890198  RH  033%=      5-min Rain = 0
KHA3 182141Z 17022KT 39/20 A2982 RMK A01 T03880198  RH  033%=      5-min Rain = 0
KHA3 182142Z 17022KT 39/20 A2983 RMK A01 T03870198  RH  033%=      5-min Rain = 0
KHA3 182143Z 17019G24KT 39/20 A2983 RMK A01 T03850197  RH  034%=      5-min Rain = 0
KHA3 182144Z 17018KT 38/20 A2983 RMK A01 T03830197  RH  034%=      5-min Rain = 0
KHA3 182145Z 17017KT 38/20 A2983 RMK A01 T03830197  RH  034%=      5-min Rain = 0
KHA3 182146Z 18015KT 39/20 A2983 RMK A01 T03850198  RH  034%=      5-min Rain = 0
KHA3 182147Z 18014KT 39/20 A2982 RMK A01 T03850196  RH  033%=      5-min Rain = 0
KHA3 182148Z 18012KT 38/20 A2982 RMK A01 T03820197  RH  034%=      5-min Rain = 0
KHA3 182149Z 16016KT 38/20 A2982 RMK A01 T03810195  RH  034%=      5-min Rain = 0
KHA3 182150Z 17018KT 38/20 A2982 RMK A01 T03820197  RH  034%=      5-min Rain = 0
KHA3 182151Z 18016KT 39/20 A2982 RMK A01 T03850198  RH  034%=      5-min Rain = 0
KHA3 182152Z 18020KT 39/20 A2982 RMK A01 T03880197  RH  033%=      5-min Rain = 0
KHA3 182153Z 18017KT 39/19 A2982 RMK A01 T03850194  RH  033%=      5-min Rain = 0
KHA3 182154Z 17018KT 38/20 A2982 RMK A01 T03830195  RH  034%=      5-min Rain = 0
KHA3 182155Z 18014G19KT 38/19 A2982 RMK A01 T03820194  RH  034%=      5-min Rain = 0
KHA3 182156Z 16014KT 38/20 A2982 RMK A01 T03830196  RH  034%=      5-min Rain = 0
KHA3 182157Z 14013KT 39/20 A2982 RMK A01 T03850195  RH  033%=      5-min Rain = 0
KHA3 182158Z 15014G20KT 39/20 A2982 RMK A01 T03860197  RH  033%=      5-min Rain = 0
KHA3 182159Z 16015KT 39/20 A2982 RMK A01 T03880198  RH  033%=      5-min Rain = 0
KHA3 182200Z 17018KT 39/20 A2982 RMK A01 T03880198  RH  033%=      5-min Rain = 0
KHA3 182201Z 17020G25KT 39/20 A2982 RMK A01 T03890197  RH  033%=      5-min Rain = 0
KHA3 182202Z 17021KT 39/20 A2982 RMK A01 T03880196  RH  033%=      5-min Rain = 0
KHA3 182203Z 17018KT 39/19 A2982 RMK A01 T03860194  RH  033%=      5-min Rain = 0
KHA3 182204Z 17019KT 38/19 A2982 RMK A01 T03840193  RH  033%=      5-min Rain = 0
KHA3 182205Z 17015KT 38/19 A2981 RMK A01 T03830193  RH  033%=      5-min Rain = 0
KHA3 182206Z 19019G24KT 38/19 A2981 RMK A01 T03830192  RH  033%=      5-min Rain = 0
KHA3 182207Z 18016KT 38/19 A2981 RMK A01 T03830192  RH  033%=      5-min Rain = 0
KHA3 182208Z 17016KT 38/20 A2981 RMK A01 T03830196  RH  034%=      5-min Rain = 0
KHA3 182209Z 17021KT 39/20 A2981 RMK A01 T03850196  RH  034%=      5-min Rain = 0
KHA3 182210Z 18021KT 39/20 A2981 RMK A01 T03850195  RH  033%=      5-min Rain = 0
KHA3 182211Z 17021KT 39/20 A2981 RMK A01 T03850195  RH  033%=      5-min Rain = 0
KHA3 182212Z 18020G25KT 38/19 A2981 RMK A01 T03830193  RH  033%=      5-min Rain = 0
KHA3 182213Z 19020KT 38/19 A2981 RMK A01 T03830192  RH  033%=      5-min Rain = 0
KHA3 182214Z 19014KT 38/19 A2981 RMK A01 T03820191  RH  033%=      5-min Rain = 0
KHA3 182215Z 17014G20KT 38/19 A2981 RMK A01 T03820192  RH  033%=      5-min Rain = 0
KHA3 182216Z 16017KT 38/19 A2981 RMK A01 T03830193  RH  033%=      5-min Rain = 0
KHA3 182217Z 18020G26KT 38/19 A2981 RMK A01 T03840194  RH  033%=      5-min Rain = 0
KHA3 182218Z 18019KT 38/19 A2981 RMK A01 T03840192  RH  033%=      5-min Rain = 0
KHA3 182219Z 18014KT 38/19 A2981 RMK A01 T03840194  RH  033%=      5-min Rain = 0
KHA3 182220Z 19016G21KT 39/20 A2981 RMK A01 T03860195  RH  033%=      5-min Rain = 0
KHA3 182221Z 19021G26KT 39/20 A2981 RMK A01 T03870195  RH  033%=      5-min Rain = 0
KHA3 182222Z 18018KT 39/19 A2981 RMK A01 T03850194  RH  033%=      5-min Rain = 0
KHA3 182223Z 18019KT 38/19 A2981 RMK A01 T03840194  RH  033%=      5-min Rain = 0
KHA3 182224Z 18018KT 38/19 A2981 RMK A01 T03840193  RH  033%=      5-min Rain = 0
KHA3 182225Z 18022G27KT 38/19 A298 RMK A01 T03810193  RH  033%=      5-min Rain = 0
KHA3 182226Z 18016G21KT 38/20 A2981 RMK A01 T03810195  RH  034%=      5-min Rain = 0
KHA3 182227Z 17021KT 38/19 A2981 RMK A01 T03830194  RH  033%=      5-min Rain = 0
KHA3 182228Z 16018KT 38/19 A2981 RMK A01 T03840193  RH  033%=      5-min Rain = 0
KHA3 182229Z 17021KT 38/19 A2981 RMK A01 T03840192  RH  033%=      5-min Rain = 0
KHA3 182230Z 17017KT 38/19 A2981 RMK A01 T03830193  RH  033%=      5-min Rain = 0
KHA3 182231Z 17017G23KT 38/19 A2981 RMK A01 T03840194  RH  033%=      5-min Rain = 0
KHA3 182232Z 17018KT 39/19 A2981 RMK A01 T03850193  RH  033%=      5-min Rain = 0
KHA3 182233Z 18018G23KT 39/19 A298 RMK A01 T03850191  RH  032%=      5-min Rain = 0
KHA3 182234Z 18018KT 38/19 A298 RMK A01 T03830192  RH  033%=      5-min Rain = 0
KHA3 182235Z 18020KT 38/19 A298 RMK A01 T03820192  RH  033%=      5-min Rain = 0
KHA3 182236Z 18018KT 38/19 A298 RMK A01 T03820192  RH  033%=      5-min Rain = 0
KHA3 182237Z 16017KT 38/19 A298 RMK A01 T03820192  RH  033%=      5-min Rain = 0
KHA3 182238Z 16015KT 38/19 A298 RMK A01 T03820193  RH  033%=      5-min Rain = 0
KHA3 182239Z 17015KT 38/19 A298 RMK A01 T03820193  RH  033%=      5-min Rain = 0
KHA3 182240Z 17015KT 38/19 A298 RMK A01 T03830194  RH  034%=      5-min Rain = 0
KHA3 182241Z 17015KT 38/20 A298 RMK A01 T03830197  RH  034%=      5-min Rain = 0
KHA3 182242Z 17014KT 39/20 A298 RMK A01 T03860198  RH  034%=      5-min Rain = 0
KHA3 182243Z 16016KT 39/20 A298 RMK A01 T03870197  RH  033%=      5-min Rain = 0
KHA3 182244Z 17017KT 39/19 A298 RMK A01 T03860192  RH  032%=      5-min Rain = 0
KHA3 182245Z 17015KT 38/19 A298 RMK A01 T03830192  RH  033%=      5-min Rain = 0
KHA3 182246Z 17018KT 38/19 A298 RMK A01 T03820191  RH  033%=      5-min Rain = 0
KHA3 182247Z 17014KT 38/19 A298 RMK A01 T03810192  RH  033%=      5-min Rain = 0
KHA3 182248Z 16017G22KT 38/19 A298 RMK A01 T03820193  RH  033%=      5-min Rain = 0
KHA3 182249Z 16020KT 38/19 A298 RMK A01 T03830192  RH  033%=      5-min Rain = 0
KHA3 182250Z 18017KT 38/19 A298 RMK A01 T03830193  RH  033%=      5-min Rain = 0
KHA3 182251Z 18014KT 38/19 A298 RMK A01 T03820194  RH  033%=      5-min Rain = 0
KHA3 182252Z 17016G21KT 38/20 A298 RMK A01 T03840195  RH  033%=      5-min Rain = 0
KHA3 182253Z 17015KT 39/19 A298 RMK A01 T03850194  RH  033%=      5-min Rain = 0
KHA3 182254Z 16015KT 39/20 A298 RMK A01 T03850195  RH  033%=      5-min Rain = 0
KHA3 182255Z 16016KT 39/19 A298 RMK A01 T03850191  RH  033%=      5-min Rain = 0
KHA3 182256Z 18015KT 38/19 A298 RMK A01 T03840193  RH  033%=      5-min Rain = 0
KHA3 182257Z 18015G20KT 38/19 A298 RMK A01 T03830192  RH  033%=      5-min Rain = 0
KHA3 182258Z 18015KT 38/19 A298 RMK A01 T03830192  RH  033%=      5-min Rain = 0
KHA3 182259Z 17015KT 38/19 A298 RMK A01 T03830192  RH  033%=      5-min Rain = 0
KHA3 182300Z 18016KT 38/19 A298 RMK A01 T03840191  RH  033%=      5-min Rain = 0
KHA3 182301Z 17016KT 38/19 A298 RMK A01 T03830191  RH  033%=      5-min Rain = 0
KHA3 182302Z 17017KT 38/19 A298 RMK A01 T03830189  RH  032%=      5-min Rain = 0
KHA3 182303Z 18017G22KT 38/19 A298 RMK A01 T03820189  RH  032%=      5-min Rain = 0
KHA3 182304Z 18016G21KT 38/19 A298 RMK A01 T03820190  RH  033%=      5-min Rain = 0
KHA3 182305Z 18016KT 38/19 A298 RMK A01 T03830189  RH  032%=      5-min Rain = 0
KHA3 182306Z 19018KT 38/19 A2979 RMK A01 T03830189  RH  032%=      5-min Rain = 0
KHA3 182307Z 18016KT 38/19 A2979 RMK A01 T03820189  RH  033%=      5-min Rain = 0
KHA3 182308Z 17017KT 38/19 A2979 RMK A01 T03820189  RH  033%=      5-min Rain = 0
KHA3 182309Z 18019KT 38/19 A2979 RMK A01 T03810189  RH  033%=      5-min Rain = 0
KHA3 182310Z 18020KT 38/19 A2979 RMK A01 T03810188  RH  032%=      5-min Rain = 0
KHA3 182311Z 17017KT 38/19 A2979 RMK A01 T03810189  RH  033%=      5-min Rain = 0
KHA3 182312Z 17016KT 38/19 A2979 RMK A01 T03820188  RH  032%=      5-min Rain = 0
KHA3 182313Z 17016KT 38/19 A2979 RMK A01 T03820187  RH  032%=      5-min Rain = 0
KHA3 182314Z 17017KT 38/19 A2979 RMK A01 T03810187  RH  032%=      5-min Rain = 0
KHA3 182315Z 16017KT 38/19 A2979 RMK A01 T03810187  RH  032%=      5-min Rain = 0
KHA3 182316Z 16019KT 38/19 A2979 RMK A01 T03810187  RH  032%=      5-min Rain = 0
KHA3 182317Z 17019KT 38/19 A2979 RMK A01 T03800187  RH  033%=      5-min Rain = 0
KHA3 182318Z 16013KT 38/19 A2979 RMK A01 T03790190  RH  033%=      5-min Rain = 0
KHA3 182319Z 17016KT 38/19 A2979 RMK A01 T03810191  RH  033%=      5-min Rain = 0
KHA3 182320Z 17014G19KT 38/19 A2979 RMK A01 T03810188  RH  033%=      5-min Rain = 0
KHA3 182321Z 17017KT 38/19 A2979 RMK A01 T03810188  RH  033%=      5-min Rain = 0
KHA3 182322Z 18013KT 38/19 A2979 RMK A01 T03800190  RH  033%=      5-min Rain = 0
KHA3 182323Z 19015KT 38/19 A2979 RMK A01 T03820192  RH  033%=      5-min Rain = 0
KHA3 182324Z 20014KT 38/19 A2979 RMK A01 T03830189  RH  032%=      5-min Rain = 0
KHA3 182325Z 18013KT 38/19 A2979 RMK A01 T03820189  RH  033%=      5-min Rain = 0
KHA3 182326Z 19016KT 38/19 A2979 RMK A01 T03820189  RH  033%=      5-min Rain = 0
KHA3 182327Z 19015KT 38/19 A2979 RMK A01 T03820188  RH  033%=      5-min Rain = 0
KHA3 182328Z 19017KT 38/19 A2979 RMK A01 T03820187  RH  032%=      5-min Rain = 0
KHA3 182329Z 20019KT 38/19 A2979 RMK A01 T03810186  RH  032%=      5-min Rain = 0
KHA3 182330Z 19018KT 38/19 A2979 RMK A01 T03800185  RH  032%=      5-min Rain = 0
KHA3 182331Z 18016KT 38/19 A2979 RMK A01 T03790185  RH  032%=      5-min Rain = 0
KHA3 182332Z 18016KT 38/19 A2979 RMK A01 T03780185  RH  032%=      5-min Rain = 0
KHA3 182333Z 17014KT 38/19 A2979 RMK A01 T03780185  RH  032%=      5-min Rain = 0
KHA3 182334Z 18013KT 38/18 A2979 RMK A01 T03790184  RH  032%=      5-min Rain = 0
KHA3 182335Z 17016KT 38/18 A2979 RMK A01 T03790183  RH  032%=      5-min Rain = 0
KHA3 182336Z 16016KT 38/18 A2979 RMK A01 T03790182  RH  032%=      5-min Rain = 0
KHA3 182337Z 17016KT 38/18 A2979 RMK A01 T03790183  RH  032%=      5-min Rain = 0
KHA3 182338Z 18016KT 38/18 A2979 RMK A01 T03780183  RH  032%=      5-min Rain = 0
KHA3 182339Z 18015G20KT 38/18 A2979 RMK A01 T03790184  RH  032%=      5-min Rain = 0
KHA3 182340Z 18015KT 38/18 A2979 RMK A01 T03780184  RH  032%=      5-min Rain = 0
KHA3 182341Z 18016KT 38/19 A2979 RMK A01 T03780185  RH  033%=      5-min Rain = 0
KHA3 182342Z 18012KT 38/19 A2979 RMK A01 T03770186  RH  033%=      5-min Rain = 0
KHA3 182343Z 18014KT 38/19 A2979 RMK A01 T03770190  RH  034%=      5-min Rain = 0
KHA3 182344Z 18016KT 38/19 A2979 RMK A01 T03780192  RH  034%=      5-min Rain = 0
KHA3 182345Z 18016KT 38/19 A2979 RMK A01 T03780191  RH  034%=      5-min Rain = 0
KHA3 182346Z 18014KT 38/19 A2979 RMK A01 T03780191  RH  034%=      5-min Rain = 0
KHA3 182347Z 17014G19KT 38/19 A2979 RMK A01 T03780192  RH  034%=      5-min Rain = 0
KHA3 182348Z 17016KT 38/19 A2979 RMK A01 T03770189  RH  033%=      5-min Rain = 0
KHA3 182349Z 17015KT 38/19 A2979 RMK A01 T03760192  RH  034%=      5-min Rain = 0
KHA3 182350Z 16017KT 38/19 A2979 RMK A01 T03760190  RH  034%=      5-min Rain = 0
KHA3 182351Z 17017KT 38/19 A2979 RMK A01 T03760191  RH  034%=      5-min Rain = 0
KHA3 182352Z 17018KT 38/19 A2979 RMK A01 T03760190  RH  034%=      5-min Rain = 0
KHA3 182353Z 17016KT 38/19 A2979 RMK A01 T03750192  RH  034%=      5-min Rain = 0
KHA3 182354Z 18018KT 38/19 A2979 RMK A01 T03750191  RH  034%=      5-min Rain = 0
KHA3 182355Z 17018KT 38/19 A2979 RMK A01 T03750189  RH  034%=      5-min Rain = 0
KHA3 182356Z 18017KT 37/19 A2979 RMK A01 T03740190  RH  034%=      5-min Rain = 0
KHA3 182357Z 17015G20KT 37/19 A298 RMK A01 T03740191  RH  034%=      5-min Rain = 0
KHA3 182358Z 17016KT 37/19 A298 RMK A01 T03740191  RH  034%=      5-min Rain = 0
KHA3 182359Z 17014KT 37/19 A298 RMK A01 T03730190  RH  034%=      5-min Rain = 0
KHA3 190000Z 17013KT 37/19 A298 RMK A01 T03730191  RH  035%=      5-min Rain = 0
KHA3 190001Z 17012KT 37/19 A298 RMK A01 T03730191  RH  034%=      5-min Rain = 0
KHA3 190002Z 18011KT 37/19 A298 RMK A01 T03730192  RH  035%=      5-min Rain = 0
KHA3 190003Z 17015KT 37/19 A298 RMK A01 T03730190  RH  034%=      5-min Rain = 0
KHA3 190004Z 18017KT 37/19 A2979 RMK A01 T03740188  RH  034%=      5-min Rain = 0
KHA3 190005Z 18018KT 37/19 A2979 RMK A01 T03730188  RH  034%=      5-min Rain = 0
KHA3 190006Z 17018KT 37/19 A298 RMK A01 T03730188  RH  034%=      5-min Rain = 0
KHA3 190007Z 17017KT 37/19 A298 RMK A01 T03730189  RH  034%=      5-min Rain = 0
KHA3 190008Z 17013KT 37/19 A298 RMK A01 T03720190  RH  034%=      5-min Rain = 0
KHA3 190009Z 16014KT 37/19 A298 RMK A01 T03730190  RH  034%=      5-min Rain = 0
KHA3 190010Z 17016KT 37/19 A298 RMK A01 T03720189  RH  034%=      5-min Rain = 0
KHA3 190011Z 17016KT 37/19 A298 RMK A01 T03720189  RH  034%=      5-min Rain = 0
KHA3 190012Z 17015KT 37/19 A298 RMK A01 T03710190  RH  035%=      5-min Rain = 0
KHA3 190013Z 17014KT 37/19 A298 RMK A01 T03710190  RH  035%=      5-min Rain = 0
KHA3 190014Z 17015KT 37/19 A298 RMK A01 T03710192  RH  035%=      5-min Rain = 0
KHA3 190015Z 18017KT 37/19 A298 RMK A01 T03700191  RH  035%=      5-min Rain = 0
KHA3 190016Z 17016KT 37/19 A298 RMK A01 T03700192  RH  035%=      5-min Rain = 0
KHA3 190017Z 17015KT 37/19 A298 RMK A01 T03690193  RH  036%=      5-min Rain = 0
KHA3 190018Z 16018KT 37/19 A298 RMK A01 T03690192  RH  036%=      5-min Rain = 0
KHA3 190019Z 16019KT 37/19 A298 RMK A01 T03690191  RH  035%=      5-min Rain = 0
KHA3 190020Z 16016KT 37/19 A298 RMK A01 T03690190  RH  035%=      5-min Rain = 0
KHA3 190021Z 16015KT 37/19 A298 RMK A01 T03690191  RH  035%=      5-min Rain = 0
KHA3 190022Z 17015KT 37/19 A298 RMK A01 T03690191  RH  035%=      5-min Rain = 0
KHA3 190023Z 17015KT 37/19 A298 RMK A01 T03690191  RH  035%=      5-min Rain = 0
KHA3 190024Z 17014KT 37/19 A298 RMK A01 T03690189  RH  035%=      5-min Rain = 0
KHA3 190025Z 17014KT 37/19 A298 RMK A01 T03690189  RH  035%=      5-min Rain = 0
KHA3 190026Z 17013KT 37/19 A298 RMK A01 T03690187  RH  035%=      5-min Rain = 0
KHA3 190027Z 17014G19KT 37/19 A298 RMK A01 T03690189  RH  035%=      5-min Rain = 0
KHA3 190028Z 17015KT 37/19 A298 RMK A01 T03690189  RH  035%=      5-min Rain = 0
KHA3 190029Z 17014KT 37/19 A298 RMK A01 T03690190  RH  035%=      5-min Rain = 0
KHA3 190030Z 17013G18KT 37/19 A298 RMK A01 T03690191  RH  035%=      5-min Rain = 0
KHA3 190031Z 17016KT 37/19 A298 RMK A01 T03680191  RH  036%=      5-min Rain = 0
KHA3 190032Z 16016KT 37/19 A298 RMK A01 T03680191  RH  035%=      5-min Rain = 0
KHA3 190033Z 17016KT 37/19 A298 RMK A01 T03680190  RH  035%=      5-min Rain = 0
KHA3 190034Z 17016KT 37/19 A298 RMK A01 T03670189  RH  035%=      5-min Rain = 0
KHA3 190035Z 17017KT 37/19 A298 RMK A01 T03670189  RH  035%=      5-min Rain = 0
KHA3 190036Z 16014KT 37/19 A298 RMK A01 T03660189  RH  035%=      5-min Rain = 0
KHA3 190037Z 16016KT 37/19 A298 RMK A01 T03660190  RH  036%=      5-min Rain = 0
KHA3 190038Z 16016KT 37/19 A298 RMK A01 T03660189  RH  036%=      5-min Rain = 0
KHA3 190039Z 16015KT 37/19 A298 RMK A01 T03650190  RH  036%=      5-min Rain = 0
KHA3 190040Z 17016KT 36/19 A298 RMK A01 T03640190  RH  036%=      5-min Rain = 0
KHA3 190041Z 17017KT 37/19 A298 RMK A01 T03650191  RH  036%=      5-min Rain = 0
KHA3 190042Z 16017KT 36/19 A298 RMK A01 T03640189  RH  036%=      5-min Rain = 0
KHA3 190043Z 16015KT 36/19 A298 RMK A01 T03640190  RH  036%=      5-min Rain = 0
KHA3 190044Z 16014KT 36/19 A298 RMK A01 T03640191  RH  036%=      5-min Rain = 0
KHA3 190045Z 17017KT 36/19 A298 RMK A01 T03640191  RH  036%=      5-min Rain = 0
KHA3 190046Z 16015KT 36/19 A298 RMK A01 T03630190  RH  036%=      5-min Rain = 0
KHA3 190047Z 16012KT 36/19 A298 RMK A01 T03630192  RH  037%=      5-min Rain = 0
KHA3 190048Z 16012KT 36/19 A298 RMK A01 T03630193  RH  037%=      5-min Rain = 0
KHA3 190049Z 17014KT 36/19 A298 RMK A01 T03620192  RH  037%=      5-min Rain = 0
KHA3 190050Z 16015KT 36/19 A298 RMK A01 T03620191  RH  037%=      5-min Rain = 0
KHA3 190051Z 16013KT 36/19 A298 RMK A01 T03610191  RH  037%=      5-min Rain = 0
KHA3 190052Z 17017KT 36/19 A298 RMK A01 T03610191  RH  037%=      5-min Rain = 0
KHA3 190053Z 17017KT 36/19 A298 RMK A01 T03610189  RH  036%=      5-min Rain = 0
KHA3 190054Z 16016KT 36/19 A298 RMK A01 T03610189  RH  036%=      5-min Rain = 0
KHA3 190055Z 17014KT 36/19 A298 RMK A01 T03610190  RH  037%=      5-min Rain = 0
KHA3 190056Z 16016KT 36/19 A298 RMK A01 T03600189  RH  037%=      5-min Rain = 0
KHA3 190057Z 16016KT 36/19 A298 RMK A01 T03600189  RH  037%=      5-min Rain = 0
KHA3 190058Z 17013KT 36/19 A298 RMK A01 T03600189  RH  037%=      5-min Rain = 0
KHA3 190059Z 16016KT 36/19 A298 RMK A01 T03600190  RH  037%=      5-min Rain = 0
KHA3 190100Z 17017KT 36/19 A298 RMK A01 T03590189  RH  037%=      5-min Rain = 0
KHA3 190101Z 17014KT 36/19 A298 RMK A01 T03590190  RH  037%=      5-min Rain = 0
KHA3 190102Z 17015KT 36/19 A298 RMK A01 T03590190  RH  037%=      5-min Rain = 0
KHA3 190103Z 17013KT 36/19 A298 RMK A01 T03590190  RH  037%=      5-min Rain = 0
KHA3 190104Z 16013KT 36/19 A298 RMK A01 T03580191  RH  038%=      5-min Rain = 0
KHA3 190105Z 17017KT 36/19 A298 RMK A01 T03570190  RH  038%=      5-min Rain = 0
KHA3 190106Z 17017KT 36/19 A298 RMK A01 T03570189  RH  037%=      5-min Rain = 0
KHA3 190107Z 17016KT 36/19 A298 RMK A01 T03570189  RH  037%=      5-min Rain = 0
KHA3 190108Z 16014KT 36/19 A298 RMK A01 T03570189  RH  037%=      5-min Rain = 0
KHA3 190109Z 16016KT 36/19 A298 RMK A01 T03570190  RH  037%=      5-min Rain = 0
KHA3 190110Z 17016KT 36/19 A298 RMK A01 T03560188  RH  037%=      5-min Rain = 0
KHA3 190111Z 17016KT 36/19 A298 RMK A01 T03560188  RH  037%=      5-min Rain = 0
KHA3 190112Z 17015KT 36/19 A298 RMK A01 T03560189  RH  037%=      5-min Rain = 0
KHA3 190113Z 17013KT 36/19 A298 RMK A01 T03560188  RH  037%=      5-min Rain = 0
KHA3 190114Z 17012KT 36/19 A298 RMK A01 T03550189  RH  038%=      5-min Rain = 0
KHA3 190115Z 17011KT 36/19 A298 RMK A01 T03550190  RH  038%=      5-min Rain = 0
KHA3 190116Z 16011KT 35/19 A298 RMK A01 T03530190  RH  038%=      5-min Rain = 0
KHA3 190117Z 16010KT 35/19 A298 RMK A01 T03520191  RH  039%=      5-min Rain = 0
KHA3 190118Z 16012G17KT 35/19 A298 RMK A01 T03510191  RH  039%=      5-min Rain = 0
KHA3 190119Z 16013KT 35/19 A298 RMK A01 T03510191  RH  039%=      5-min Rain = 0
KHA3 190120Z 17013KT 35/19 A298 RMK A01 T03500190  RH  039%=      5-min Rain = 0
KHA3 190121Z 16013KT 35/19 A298 RMK A01 T03510189  RH  039%=      5-min Rain = 0
KHA3 190122Z 16012KT 35/19 A298 RMK A01 T03500190  RH  039%=      5-min Rain = 0
KHA3 190123Z 16013KT 35/19 A298 RMK A01 T03500191  RH  039%=      5-min Rain = 0
KHA3 190124Z 16013KT 35/19 A298 RMK A01 T03490191  RH  039%=      5-min Rain = 0
KHA3 190125Z 16012KT 35/19 A298 RMK A01 T03490191  RH  039%=      5-min Rain = 0
KHA3 190126Z 16012KT 35/19 A298 RMK A01 T03480191  RH  040%=      5-min Rain = 0
KHA3 190127Z 16010KT 35/19 A298 RMK A01 T03470191  RH  040%=      5-min Rain = 0
KHA3 190128Z 16013KT 35/19 A298 RMK A01 T03460191  RH  040%=      5-min Rain = 0
KHA3 190129Z 16014KT 35/19 A298 RMK A01 T03460190  RH  040%=      5-min Rain = 0
KHA3 190130Z 16014KT 35/19 A298 RMK A01 T03460189  RH  039%=      5-min Rain = 0
KHA3 190131Z 16013KT 35/19 A298 RMK A01 T03470189  RH  039%=      5-min Rain = 0
KHA3 190132Z 16013KT 35/19 A298 RMK A01 T03470189  RH  040%=      5-min Rain = 0
KHA3 190133Z 16013G18KT 35/19 A298 RMK A01 T03460189  RH  040%=      5-min Rain = 0
KHA3 190134Z 16014KT 35/19 A298 RMK A01 T03460189  RH  040%=      5-min Rain = 0
KHA3 190135Z 16013KT 35/19 A298 RMK A01 T03460189  RH  040%=      5-min Rain = 0
KHA3 190136Z 16013KT 35/19 A298 RMK A01 T03460189  RH  040%=      5-min Rain = 0
KHA3 190137Z 16013KT 35/19 A298 RMK A01 T03450189  RH  040%=      5-min Rain = 0
KHA3 190138Z 17013KT 35/19 A298 RMK A01 T03450189  RH  040%=      5-min Rain = 0
KHA3 190139Z 16012KT 34/19 A298 RMK A01 T03440189  RH  040%=      5-min Rain = 0
KHA3 190140Z 16012KT 34/19 A298 RMK A01 T03430189  RH  040%=      5-min Rain = 0
KHA3 190141Z 16011KT 34/19 A2981 RMK A01 T03430189  RH  040%=      5-min Rain = 0
KHA3 190142Z 16012G17KT 34/19 A2981 RMK A01 T03410189  RH  041%=      5-min Rain = 0
KHA3 190143Z 16014KT 34/19 A2981 RMK A01 T03410189  RH  041%=      5-min Rain = 0
KHA3 190144Z 16014KT 34/19 A2981 RMK A01 T03410189  RH  041%=      5-min Rain = 0
KHA3 190145Z 16014KT 34/19 A2981 RMK A01 T03410189  RH  041%=      5-min Rain = 0
KHA3 190146Z 15013KT 34/19 A2981 RMK A01 T03410190  RH  041%=      5-min Rain = 0
KHA3 190147Z 16012KT 34/19 A2981 RMK A01 T03410190  RH  041%=      5-min Rain = 0
KHA3 190148Z 16013KT 34/19 A2981 RMK A01 T03400190  RH  041%=      5-min Rain = 0
KHA3 190149Z 16013KT 34/19 A2981 RMK A01 T03410190  RH  041%=      5-min Rain = 0
KHA3 190150Z 16012KT 34/19 A2981 RMK A01 T03400191  RH  041%=      5-min Rain = 0
KHA3 190151Z 16012KT 34/19 A2981 RMK A01 T03400190  RH  041%=      5-min Rain = 0
KHA3 190152Z 16013KT 34/19 A2981 RMK A01 T03400191  RH  042%=      5-min Rain = 0
KHA3 190153Z 16011KT 34/19 A2981 RMK A01 T03390191  RH  042%=      5-min Rain = 0
KHA3 190154Z 16011KT 34/19 A2981 RMK A01 T03390191  RH  042%=      5-min Rain = 0
KHA3 190155Z 16012KT 34/19 A2981 RMK A01 T03380191  RH  042%=      5-min Rain = 0
KHA3 190156Z 16012KT 34/19 A2981 RMK A01 T03380191  RH  042%=      5-min Rain = 0
KHA3 190157Z 16014KT 34/19 A2981 RMK A01 T03380190  RH  042%=      5-min Rain = 0
KHA3 190158Z 15011KT 34/19 A2981 RMK A01 T03380190  RH  042%=      5-min Rain = 0
KHA3 190159Z 16010KT 34/19 A2981 RMK A01 T03380191  RH  042%=      5-min Rain = 0
KHA3 190200Z 16010KT 34/19 A2981 RMK A01 T03370191  RH  042%=      5-min Rain = 0
KHA3 190201Z 15012KT 34/19 A2981 RMK A01 T03360191  RH  042%=      5-min Rain = 0
KHA3 190202Z 16012KT 34/19 A2981 RMK A01 T03350190  RH  042%=      5-min Rain = 0
KHA3 190203Z 15012KT 34/19 A2981 RMK A01 T03350191  RH  043%=      5-min Rain = 0
KHA3 190204Z 15011KT 34/19 A2981 RMK A01 T03350191  RH  043%=      5-min Rain = 0
KHA3 190205Z 16011KT 34/19 A2981 RMK A01 T03350191  RH  043%=      5-min Rain = 0
KHA3 190206Z 15012KT 33/19 A2981 RMK A01 T03340191  RH  043%=      5-min Rain = 0
KHA3 190207Z 16012KT 33/19 A2981 RMK A01 T03340190  RH  043%=      5-min Rain = 0
KHA3 190208Z 16012KT 33/19 A2981 RMK A01 T03340190  RH  043%=      5-min Rain = 0
KHA3 190209Z 15012KT 33/19 A2981 RMK A01 T03340191  RH  043%=      5-min Rain = 0
KHA3 190210Z 16013KT 33/19 A2981 RMK A01 T03330191  RH  043%=      5-min Rain = 0
KHA3 190211Z 16013KT 33/19 A2981 RMK A01 T03340191  RH  043%=      5-min Rain = 0
KHA3 190212Z 15011KT 33/19 A2982 RMK A01 T03330191  RH  043%=      5-min Rain = 0
KHA3 190213Z 15011KT 33/19 A2982 RMK A01 T03330191  RH  043%=      5-min Rain = 0
KHA3 190214Z 15011KT 33/19 A2982 RMK A01 T03330191  RH  043%=      5-min Rain = 0
KHA3 190215Z 15013KT 33/19 A2982 RMK A01 T03320191  RH  043%=      5-min Rain = 0
KHA3 190216Z 16011KT 33/19 A2982 RMK A01 T03320190  RH  043%=      5-min Rain = 0
KHA3 190217Z 15013KT 33/19 A2982 RMK A01 T03320191  RH  043%=      5-min Rain = 0
KHA3 190218Z 15011KT 33/19 A2982 RMK A01 T03330191  RH  043%=      5-min Rain = 0
KHA3 190219Z 16012KT 33/19 A2982 RMK A01 T03320191  RH  043%=      5-min Rain = 0
KHA3 190220Z 16013KT 33/19 A2982 RMK A01 T03320191  RH  043%=      5-min Rain = 0
KHA3 190221Z 15012KT 33/19 A2982 RMK A01 T03310190  RH  043%=      5-min Rain = 0
KHA3 190222Z 15013KT 33/19 A2982 RMK A01 T03310190  RH  043%=      5-min Rain = 0
KHA3 190223Z 15012KT 33/19 A2982 RMK A01 T03320190  RH  043%=      5-min Rain = 0
KHA3 190224Z 15011KT 33/19 A2982 RMK A01 T03310190  RH  043%=      5-min Rain = 0
KHA3 190225Z 16011KT 33/19 A2982 RMK A01 T03310191  RH  044%=      5-min Rain = 0
KHA3 190226Z 15013KT 33/19 A2982 RMK A01 T03300191  RH  044%=      5-min Rain = 0
KHA3 190227Z 16013KT 33/19 A2982 RMK A01 T03300190  RH  044%=      5-min Rain = 0
KHA3 190228Z 15012KT 33/19 A2982 RMK A01 T03300190  RH  044%=      5-min Rain = 0
KHA3 190229Z 16012KT 33/19 A2982 RMK A01 T03300190  RH  044%=      5-min Rain = 0
KHA3 190230Z 15013KT 33/19 A2982 RMK A01 T03300190  RH  044%=      5-min Rain = 0
KHA3 190231Z 15013KT 33/19 A2982 RMK A01 T03300191  RH  044%=      5-min Rain = 0
KHA3 190232Z 16013KT 33/19 A2982 RMK A01 T03300190  RH  044%=      5-min Rain = 0
KHA3 190233Z 16013KT 33/19 A2982 RMK A01 T03300190  RH  044%=      5-min Rain = 0
KHA3 190234Z 16013KT 33/19 A2982 RMK A01 T03300190  RH  044%=      5-min Rain = 0
KHA3 190235Z 16012KT 33/19 A2982 RMK A01 T03300190  RH  044%=      5-min Rain = 0
KHA3 190236Z 16014KT 33/19 A2982 RMK A01 T03290190  RH  044%=      5-min Rain = 0
KHA3 190237Z 15015KT 33/19 A2982 RMK A01 T03290190  RH  044%=      5-min Rain = 0
KHA3 190238Z 16013KT 33/19 A2982 RMK A01 T03300190  RH  044%=      5-min Rain = 0
KHA3 190239Z 16014KT 33/19 A2982 RMK A01 T03310190  RH  044%=      5-min Rain = 0
KHA3 190240Z 16014KT 33/19 A2982 RMK A01 T03300190  RH  043%=      5-min Rain = 0
KHA3 190241Z 16015KT 33/19 A2982 RMK A01 T03300190  RH  043%=      5-min Rain = 0
KHA3 190242Z 16013KT 33/19 A2982 RMK A01 T03300189  RH  043%=      5-min Rain = 0
KHA3 190243Z 16014KT 33/19 A2982 RMK A01 T03310190  RH  043%=      5-min Rain = 0
KHA3 190244Z 16012KT 33/19 A2982 RMK A01 T03300190  RH  043%=      5-min Rain = 0
KHA3 190245Z 16013KT 33/19 A2982 RMK A01 T03300190  RH  044%=      5-min Rain = 0
KHA3 190246Z 16013KT 33/19 A2982 RMK A01 T03290190  RH  044%=      5-min Rain = 0
KHA3 190247Z 16012KT 33/19 A2982 RMK A01 T03280189  RH  044%=      5-min Rain = 0
KHA3 190248Z 16013KT 33/19 A2982 RMK A01 T03280189  RH  044%=      5-min Rain = 0
KHA3 190249Z 16013KT 33/19 A2982 RMK A01 T03270189  RH  044%=      5-min Rain = 0
KHA3 190250Z 16014KT 33/19 A2982 RMK A01 T03270189  RH  044%=      5-min Rain = 0
KHA3 190251Z 16013KT 33/19 A2982 RMK A01 T03270188  RH  044%=      5-min Rain = 0
KHA3 190252Z 16014KT 33/19 A2982 RMK A01 T03280189  RH  044%=      5-min Rain = 0
KHA3 190253Z 15014KT 33/19 A2982 RMK A01 T03280189  RH  044%=      5-min Rain = 0
KHA3 190254Z 16012KT 33/19 A2982 RMK A01 T03280189  RH  044%=      5-min Rain = 0
KHA3 190255Z 16013KT 33/19 A2982 RMK A01 T03280189  RH  044%=      5-min Rain = 0
KHA3 190256Z 15014G20KT 33/19 A2982 RMK A01 T03270188  RH  044%=      5-min Rain = 0
KHA3 190257Z 16015KT 33/19 A2982 RMK A01 T03260188  RH  044%=      5-min Rain = 0
KHA3 190258Z 16014KT 33/19 A2982 RMK A01 T03270188  RH  044%=      5-min Rain = 0
KHA3 190259Z 16014KT 33/19 A2982 RMK A01 T03270188  RH  044%=      5-min Rain = 0
KHA3 190300Z 15014KT 33/19 A2982 RMK A01 T03270188  RH  044%=      5-min Rain = 0
KHA3 190301Z 16014KT 33/19 A2982 RMK A01 T03270188  RH  044%=      5-min Rain = 0
KHA3 190302Z 16013KT 33/19 A2982 RMK A01 T03280188  RH  044%=      5-min Rain = 0
KHA3 190303Z 16012KT 33/19 A2982 RMK A01 T03270188  RH  044%=      5-min Rain = 0
KHA3 190304Z 15013KT 33/19 A2982 RMK A01 T03260187  RH  044%=      5-min Rain = 0
KHA3 190305Z 15012KT 33/19 A2982 RMK A01 T03260188  RH  044%=      5-min Rain = 0
KHA3 190306Z 15011KT 33/19 A2983 RMK A01 T03250188  RH  044%=      5-min Rain = 0
KHA3 190307Z 15012KT 32/19 A2983 RMK A01 T03240188  RH  045%=      5-min Rain = 0
KHA3 190308Z 15012KT 32/19 A2983 RMK A01 T03230187  RH  045%=      5-min Rain = 0
KHA3 190309Z 15012KT 32/19 A2983 RMK A01 T03230188  RH  045%=      5-min Rain = 0
KHA3 190310Z 15010KT 32/19 A2983 RMK A01 T03230188  RH  045%=      5-min Rain = 0
KHA3 190311Z 15012KT 32/19 A2983 RMK A01 T03220187  RH  045%=      5-min Rain = 0
KHA3 190312Z 15013KT 32/19 A2983 RMK A01 T03210187  RH  045%=      5-min Rain = 0
KHA3 190313Z 15011KT 32/19 A2983 RMK A01 T03220187  RH  045%=      5-min Rain = 0
KHA3 190314Z 15012KT 32/19 A2983 RMK A01 T03210187  RH  045%=      5-min Rain = 0
KHA3 190315Z 15011KT 32/19 A2983 RMK A01 T03210187  RH  045%=      5-min Rain = 0
KHA3 190316Z 15012KT 32/19 A2983 RMK A01 T03200187  RH  045%=      5-min Rain = 0
KHA3 190317Z 15011KT 32/19 A2983 RMK A01 T03200187  RH  045%=      5-min Rain = 0
KHA3 190318Z 15011KT 32/19 A2983 RMK A01 T03190187  RH  046%=      5-min Rain = 0
KHA3 190319Z 14011KT 32/19 A2983 RMK A01 T03190187  RH  046%=      5-min Rain = 0
KHA3 190320Z 14010KT 32/19 A2983 RMK A01 T03180188  RH  046%=      5-min Rain = 0
KHA3 190321Z 15011KT 32/19 A2983 RMK A01 T03180188  RH  046%=      5-min Rain = 0
KHA3 190322Z 15012G19KT 32/19 A2983 RMK A01 T03180188  RH  046%=      5-min Rain = 0
KHA3 190323Z 15012KT 32/19 A2983 RMK A01 T03170188  RH  046%=      5-min Rain = 0
KHA3 190324Z 15012KT 32/19 A2983 RMK A01 T03170188  RH  046%=      5-min Rain = 0
KHA3 190325Z 15012KT 32/19 A2983 RMK A01 T03170188  RH  046%=      5-min Rain = 0
KHA3 190326Z 14010KT 32/19 A2983 RMK A01 T03180189  RH  046%=      5-min Rain = 0
KHA3 190327Z 15011KT 32/19 A2983 RMK A01 T03170189  RH  047%=      5-min Rain = 0
KHA3 190328Z 15014KT 32/19 A2983 RMK A01 T03160189  RH  047%=      5-min Rain = 0
KHA3 190329Z 15012KT 32/19 A2983 RMK A01 T03170189  RH  047%=      5-min Rain = 0
KHA3 190330Z 15013KT 32/19 A2984 RMK A01 T03170189  RH  046%=      5-min Rain = 0
KHA3 190331Z 15011KT 32/19 A2984 RMK A01 T03170189  RH  047%=      5-min Rain = 0
KHA3 190332Z 15012KT 32/19 A2984 RMK A01 T03170189  RH  047%=      5-min Rain = 0
KHA3 190333Z 15013KT 32/19 A2984 RMK A01 T03170189  RH  047%=      5-min Rain = 0
KHA3 190334Z 15013KT 32/19 A2984 RMK A01 T03170189  RH  047%=      5-min Rain = 0
KHA3 190335Z 15011KT 32/19 A2984 RMK A01 T03170189  RH  047%=      5-min Rain = 0
KHA3 190336Z 15012KT 32/19 A2984 RMK A01 T03160189  RH  047%=      5-min Rain = 0
KHA3 190337Z 15012KT 32/19 A2984 RMK A01 T03160189  RH  047%=      5-min Rain = 0
KHA3 190338Z 15013KT 32/19 A2984 RMK A01 T03160189  RH  047%=      5-min Rain = 0
KHA3 190339Z 15013KT 32/19 A2984 RMK A01 T03150188  RH  047%=      5-min Rain = 0
KHA3 190340Z 15013KT 32/19 A2984 RMK A01 T03160189  RH  047%=      5-min Rain = 0
KHA3 190341Z 15013KT 32/19 A2984 RMK A01 T03160189  RH  047%=      5-min Rain = 0
KHA3 190342Z 15013KT 32/19 A2984 RMK A01 T03160189  RH  047%=      5-min Rain = 0
KHA3 190343Z 15014KT 32/19 A2984 RMK A01 T03160189  RH  047%=      5-min Rain = 0
KHA3 190344Z 15012KT 32/19 A2984 RMK A01 T03150189  RH  047%=      5-min Rain = 0
KHA3 190345Z 15014KT 32/19 A2984 RMK A01 T03150189  RH  047%=      5-min Rain = 0
KHA3 190346Z 15014KT 32/19 A2984 RMK A01 T03150189  RH  047%=      5-min Rain = 0
KHA3 190347Z 15012KT 32/19 A2984 RMK A01 T03150188  RH  047%=      5-min Rain = 0
KHA3 190348Z 16013KT 32/19 A2984 RMK A01 T03150189  RH  047%=      5-min Rain = 0
KHA3 190349Z 15014KT 31/19 A2984 RMK A01 T03140188  RH  047%=      5-min Rain = 0
KHA3 190350Z 15013KT 32/19 A2984 RMK A01 T03150188  RH  047%=      5-min Rain = 0
KHA3 190351Z 15014KT 32/19 A2984 RMK A01 T03150188  RH  047%=      5-min Rain = 0
KHA3 190352Z 15013KT 32/19 A2984 RMK A01 T03150188  RH  047%=      5-min Rain = 0
KHA3 190353Z 15013KT 32/19 A2984 RMK A01 T03150188  RH  047%=      5-min Rain = 0
KHA3 190354Z 15014KT 31/19 A2984 RMK A01 T03140188  RH  047%=      5-min Rain = 0
KHA3 190355Z 15012KT 32/19 A2984 RMK A01 T03150188  RH  047%=      5-min Rain = 0
KHA3 190356Z 15013KT 31/19 A2984 RMK A01 T03140188  RH  047%=      5-min Rain = 0
KHA3 190357Z 15014KT 31/19 A2984 RMK A01 T03140188  RH  047%=      5-min Rain = 0
KHA3 190358Z 15013KT 31/19 A2984 RMK A01 T03140188  RH  047%=      5-min Rain = 0
KHA3 190359Z 15012KT 31/19 A2984 RMK A01 T03130188  RH  047%=      5-min Rain = 0
KHA3 190400Z 15015KT 31/19 A2984 RMK A01 T03130188  RH  048%=      5-min Rain = 0
KHA3 190401Z 15014KT 31/19 A2984 RMK A01 T03120188  RH  048%=      5-min Rain = 0
KHA3 190402Z 15013KT 31/19 A2984 RMK A01 T03120188  RH  048%=      5-min Rain = 0
KHA3 190403Z 15014KT 31/19 A2984 RMK A01 T03130188  RH  048%=      5-min Rain = 0
KHA3 190404Z 15013KT 31/19 A2984 RMK A01 T03120188  RH  048%=      5-min Rain = 0
KHA3 190405Z 15013KT 31/19 A2984 RMK A01 T03120188  RH  048%=      5-min Rain = 0
KHA3 190406Z 15013KT 31/19 A2984 RMK A01 T03120188  RH  048%=      5-min Rain = 0
KHA3 190407Z 16012KT 31/19 A2984 RMK A01 T03110188  RH  048%=      5-min Rain = 0
KHA3 190408Z 15013KT 31/19 A2984 RMK A01 T03120188  RH  048%=      5-min Rain = 0
KHA3 190409Z 15014KT 31/19 A2984 RMK A01 T03110187  RH  048%=      5-min Rain = 0
KHA3 190410Z 15014KT 31/19 A2984 RMK A01 T03110187  RH  048%=      5-min Rain = 0
KHA3 190411Z 16014KT 31/19 A2984 RMK A01 T03110187  RH  048%=      5-min Rain = 0
KHA3 190412Z 15013KT 31/19 A2984 RMK A01 T03110188  RH  048%=      5-min Rain = 0
KHA3 190413Z 16013KT 31/19 A2984 RMK A01 T03110188  RH  048%=      5-min Rain = 0
KHA3 190414Z 16012KT 31/19 A2984 RMK A01 T03100188  RH  048%=      5-min Rain = 0
KHA3 190415Z 15013KT 31/19 A2985 RMK A01 T03100188  RH  048%=      5-min Rain = 0
KHA3 190416Z 15014KT 31/19 A2985 RMK A01 T03100187  RH  048%=      5-min Rain = 0
KHA3 190417Z 16012KT 31/19 A2985 RMK A01 T03100187  RH  048%=      5-min Rain = 0
KHA3 190418Z 16015KT 31/19 A2985 RMK A01 T03100187  RH  048%=      5-min Rain = 0
KHA3 190419Z 16013KT 31/19 A2985 RMK A01 T03100187  RH  048%=      5-min Rain = 0
KHA3 190420Z 16012G17KT 31/19 A2985 RMK A01 T03100187  RH  048%=      5-min Rain = 0
KHA3 190421Z 16014KT 31/19 A2985 RMK A01 T03100187  RH  048%=      5-min Rain = 0
KHA3 190422Z 16012KT 31/19 A2985 RMK A01 T03100186  RH  048%=      5-min Rain = 0
KHA3 190423Z 16014KT 31/19 A2985 RMK A01 T03100187  RH  048%=      5-min Rain = 0
KHA3 190424Z 15015KT 31/19 A2985 RMK A01 T03090186  RH  048%=      5-min Rain = 0
KHA3 190425Z 16016KT 31/19 A2985 RMK A01 T03100185  RH  048%=      5-min Rain = 0
KHA3 190426Z 16013KT 31/19 A2985 RMK A01 T03100186  RH  047%=      5-min Rain = 0
KHA3 190427Z 16014KT 31/19 A2985 RMK A01 T03100186  RH  048%=      5-min Rain = 0
KHA3 190428Z 16014G19KT 31/19 A2985 RMK A01 T03100186  RH  048%=      5-min Rain = 0
KHA3 190429Z 16015KT 31/19 A2985 RMK A01 T03090185  RH  048%=      5-min Rain = 0
KHA3 190430Z 16015KT 31/19 A2985 RMK A01 T03100185  RH  048%=      5-min Rain = 0
KHA3 190431Z 16014G20KT 31/19 A2985 RMK A01 T03100185  RH  047%=      5-min Rain = 0
KHA3 190432Z 16015KT 31/19 A2985 RMK A01 T03100185  RH  047%=      5-min Rain = 0
KHA3 190433Z 16015KT 31/19 A2985 RMK A01 T03100185  RH  047%=      5-min Rain = 0
KHA3 190434Z 16014KT 31/19 A2985 RMK A01 T03100185  RH  047%=      5-min Rain = 0
KHA3 190435Z 16016KT 31/19 A2985 RMK A01 T03090185  RH  047%=      5-min Rain = 0
KHA3 190436Z 16016KT 31/18 A2985 RMK A01 T03090184  RH  047%=      5-min Rain = 0
KHA3 190437Z 16014KT 31/18 A2985 RMK A01 T03100184  RH  047%=      5-min Rain = 0
KHA3 190438Z 16015KT 31/18 A2985 RMK A01 T03090184  RH  047%=      5-min Rain = 0
KHA3 190439Z 16014KT 31/18 A2985 RMK A01 T03090184  RH  047%=      5-min Rain = 0
KHA3 190440Z 16016KT 31/18 A2985 RMK A01 T03080184  RH  047%=      5-min Rain = 0
KHA3 190441Z 16015KT 31/18 A2985 RMK A01 T03080183  RH  047%=      5-min Rain = 0
KHA3 190442Z 16014KT 31/18 A2985 RMK A01 T03080184  RH  047%=      5-min Rain = 0
KHA3 190443Z 16015KT 31/18 A2985 RMK A01 T03080184  RH  047%=      5-min Rain = 0
KHA3 190444Z 16014KT 31/18 A2985 RMK A01 T03080183  RH  048%=      5-min Rain = 0
KHA3 190445Z 16015KT 31/18 A2985 RMK A01 T03070183  RH  048%=      5-min Rain = 0
KHA3 190446Z 16012KT 31/18 A2985 RMK A01 T03070183  RH  048%=      5-min Rain = 0
KHA3 190447Z 16016KT 31/18 A2985 RMK A01 T03070183  RH  048%=      5-min Rain = 0
KHA3 190448Z 16014KT 31/18 A2985 RMK A01 T03070183  RH  047%=      5-min Rain = 0
KHA3 190449Z 16013KT 31/18 A2985 RMK A01 T03070183  RH  048%=      5-min Rain = 0
KHA3 190450Z 16014KT 31/18 A2985 RMK A01 T03060183  RH  048%=      5-min Rain = 0
KHA3 190451Z 16014KT 31/18 A2985 RMK A01 T03060183  RH  048%=      5-min Rain = 0
KHA3 190452Z 16015KT 31/18 A2985 RMK A01 T03050182  RH  048%=      5-min Rain = 0
KHA3 190453Z 16016KT 31/18 A2985 RMK A01 T03050182  RH  048%=      5-min Rain = 0
KHA3 190454Z 16015KT 31/18 A2985 RMK A01 T03060182  RH  047%=      5-min Rain = 0
KHA3 190455Z 17014KT 31/18 A2985 RMK A01 T03060182  RH  047%=      5-min Rain = 0
KHA3 190456Z 17013KT 31/18 A2985 RMK A01 T03060182  RH  048%=      5-min Rain = 0
KHA3 190457Z 16014KT 31/18 A2985 RMK A01 T03050182  RH  048%=      5-min Rain = 0
KHA3 190458Z 17015G20KT 31/18 A2985 RMK A01 T03050181  RH  048%=      5-min Rain = 0
KHA3 190459Z 16014KT 31/18 A2985 RMK A01 T03050181  RH  047%=      5-min Rain = 0

Page generated in 0.0711 seconds.